Time,TemperatureF,DewpointF,PressureIn,WindDirection,WindDirectionDegrees,WindSpeedMPH,WindSpeedGustMPH,Humidity,HourlyPrecipIn,Conditions,Clouds,dailyrainin,SoftwareType,DateUTC
2013-07-30 00:00:00,64.2,62.1,30.13,West,260,1.0,1.0,93,0.00,,,0.00,Wunderground v.1.15,2013-07-30 04:00:00,
2013-07-30 00:01:00,64.2,62.1,30.13,West,260,0.0,1.0,93,0.00,,,0.00,Wunderground v.1.15,2013-07-30 04:01:00,
2013-07-30 00:07:00,64.3,62.2,30.13,West,260,0.0,1.0,93,0.00,,,0.00,Wunderground v.1.15,2013-07-30 04:07:00,
2013-07-30 00:08:00,64.2,62.1,30.12,West,260,1.0,1.0,93,0.00,,,0.00,Wunderground v.1.15,2013-07-30 04:08:00,
2013-07-30 00:09:00,64.2,62.1,30.12,West,260,0.0,1.0,93,0.00,,,0.00,Wunderground v.1.15,2013-07-30 04:09:00,
2013-07-30 00:14:00,64.1,62.0,30.13,West,260,0.0,1.0,93,0.00,,,0.00,Wunderground v.1.15,2013-07-30 04:14:00,
2013-07-30 00:15:00,64.1,62.0,30.12,West,260,0.0,1.0,93,0.00,,,0.00,Wunderground v.1.15,2013-07-30 04:15:00,
2013-07-30 00:16:00,64.1,62.0,30.12,West,260,0.0,1.0,93,0.00,,,0.00,Wunderground v.1.15,2013-07-30 04:16:00,
2013-07-30 00:18:00,64.0,61.9,30.12,West,260,0.0,1.0,93,0.00,,,0.00,Wunderground v.1.15,2013-07-30 04:18:00,
2013-07-30 00:22:00,63.9,61.8,30.12,West,260,0.0,0.0,93,0.00,,,0.00,Wunderground v.1.15,2013-07-30 04:22:00,
2013-07-30 00:24:00,63.9,61.8,30.12,West,260,0.0,0.0,93,0.00,,,0.00,Wunderground v.1.15,2013-07-30 04:24:00,
2013-07-30 00:25:00,63.9,61.8,30.12,West,260,0.0,0.0,93,0.00,,,0.00,Wunderground v.1.15,2013-07-30 04:25:00,
2013-07-30 00:26:00,63.9,61.8,30.13,West,260,0.0,0.0,93,0.00,,,0.00,Wunderground v.1.15,2013-07-30 04:26:00,
2013-07-30 00:27:00,63.8,61.7,30.13,West,260,0.0,0.0,93,0.00,,,0.00,Wunderground v.1.15,2013-07-30 04:27:00,
2013-07-30 00:29:00,63.7,61.6,30.13,West,260,0.0,0.0,93,0.00,,,0.00,Wunderground v.1.15,2013-07-30 04:29:00,
2013-07-30 00:31:00,63.7,61.6,30.13,West,260,0.0,0.0,93,0.00,,,0.00,Wunderground v.1.15,2013-07-30 04:31:00,
2013-07-30 00:34:00,63.5,61.4,30.13,West,260,0.0,0.0,93,0.00,,,0.00,Wunderground v.1.15,2013-07-30 04:34:00,
2013-07-30 00:36:00,63.4,61.3,30.13,West,260,0.0,0.0,93,0.00,,,0.00,Wunderground v.1.15,2013-07-30 04:36:00,
2013-07-30 00:37:00,63.4,61.3,30.13,West,260,0.0,0.0,93,0.00,,,0.00,Wunderground v.1.15,2013-07-30 04:37:00,
2013-07-30 00:38:00,63.4,61.3,30.13,West,260,0.0,0.0,93,0.00,,,0.00,Wunderground v.1.15,2013-07-30 04:38:00,
2013-07-30 00:44:00,63.2,61.1,30.13,West,260,0.0,0.0,93,0.00,,,0.00,Wunderground v.1.15,2013-07-30 04:44:00,
2013-07-30 00:45:00,63.2,61.1,30.13,West,260,0.0,0.0,93,0.00,,,0.00,Wunderground v.1.15,2013-07-30 04:45:00,
2013-07-30 00:46:00,63.2,61.1,30.13,West,260,1.0,1.0,93,0.00,,,0.00,Wunderground v.1.15,2013-07-30 04:46:00,
2013-07-30 00:49:00,63.0,60.9,30.13,West,260,0.0,1.0,93,0.00,,,0.00,Wunderground v.1.15,2013-07-30 04:49:00,
2013-07-30 00:50:00,63.0,60.9,30.13,West,260,0.0,0.0,93,0.00,,,0.00,Wunderground v.1.15,2013-07-30 04:50:00,
2013-07-30 00:52:00,63.0,60.9,30.13,West,260,0.0,0.0,93,0.00,,,0.00,Wunderground v.1.15,2013-07-30 04:52:00,
2013-07-30 00:53:00,62.9,61.1,30.13,West,260,0.0,0.0,94,0.00,,,0.00,Wunderground v.1.15,2013-07-30 04:53:00,
2013-07-30 00:54:00,62.9,61.1,30.13,West,260,0.0,0.0,94,0.00,,,0.00,Wunderground v.1.15,2013-07-30 04:54:00,
2013-07-30 00:55:00,62.8,61.0,30.13,West,260,0.0,0.0,94,0.00,,,0.00,Wunderground v.1.15,2013-07-30 04:55:00,
2013-07-30 00:57:00,62.8,61.0,30.12,West,260,0.0,0.0,94,0.00,,,0.00,Wunderground v.1.15,2013-07-30 04:57:00,
2013-07-30 00:59:00,62.7,60.9,30.12,West,260,0.0,0.0,94,0.00,,,0.00,Wunderground v.1.15,2013-07-30 04:59:00,
2013-07-30 01:02:00,62.7,60.9,30.12,West,260,0.0,2.0,94,0.00,,,0.00,Wunderground v.1.15,2013-07-30 05:02:00,
2013-07-30 01:04:00,62.7,60.9,30.12,West,260,0.0,2.0,94,0.00,,,0.00,Wunderground v.1.15,2013-07-30 05:04:00,
2013-07-30 01:05:00,62.7,60.9,30.12,West,260,0.0,2.0,94,0.00,,,0.00,Wunderground v.1.15,2013-07-30 05:05:00,
2013-07-30 01:06:00,62.7,61.2,30.12,West,260,0.0,2.0,95,0.00,,,0.00,Wunderground v.1.15,2013-07-30 05:06:00,
2013-07-30 01:11:00,62.7,61.2,30.12,West,260,0.0,1.0,95,0.00,,,0.00,Wunderground v.1.15,2013-07-30 05:11:00,
2013-07-30 01:12:00,62.7,61.2,30.12,West,260,2.0,2.0,95,0.00,,,0.00,Wunderground v.1.15,2013-07-30 05:12:00,
2013-07-30 01:13:00,62.7,61.2,30.12,West,260,1.0,2.0,95,0.00,,,0.00,Wunderground v.1.15,2013-07-30 05:13:00,
2013-07-30 01:17:00,62.6,61.1,30.12,West,260,0.0,2.0,95,0.00,,,0.00,Wunderground v.1.15,2013-07-30 05:17:00,
2013-07-30 01:18:00,62.6,61.1,30.12,West,260,0.0,2.0,95,0.00,,,0.00,Wunderground v.1.15,2013-07-30 05:18:00,
2013-07-30 01:19:00,62.6,61.1,30.12,West,260,0.0,2.0,95,0.00,,,0.00,Wunderground v.1.15,2013-07-30 05:19:00,
2013-07-30 01:21:00,62.6,61.1,30.12,West,260,0.0,1.0,95,0.00,,,0.00,Wunderground v.1.15,2013-07-30 05:21:00,
2013-07-30 01:24:00,62.5,61.0,30.12,West,260,0.0,1.0,95,0.00,,,0.00,Wunderground v.1.15,2013-07-30 05:24:00,
2013-07-30 01:26:00,62.4,60.9,30.12,West,260,0.0,1.0,95,0.00,,,0.00,Wunderground v.1.15,2013-07-30 05:26:00,
2013-07-30 01:27:00,62.4,60.9,30.12,West,260,0.0,1.0,95,0.00,,,0.00,Wunderground v.1.15,2013-07-30 05:27:00,
2013-07-30 01:30:00,62.3,60.8,30.11,West,260,0.0,0.0,95,0.00,,,0.00,Wunderground v.1.15,2013-07-30 05:30:00,
2013-07-30 01:32:00,62.2,60.8,30.11,West,260,0.0,0.0,95,0.00,,,0.00,Wunderground v.1.15,2013-07-30 05:32:00,
2013-07-30 01:35:00,62.2,60.8,30.11,West,260,0.0,0.0,95,0.00,,,0.00,Wunderground v.1.15,2013-07-30 05:35:00,
2013-07-30 01:38:00,62.2,60.8,30.11,West,260,0.0,1.0,95,0.00,,,0.00,Wunderground v.1.15,2013-07-30 05:38:00,
2013-07-30 01:41:00,62.2,60.8,30.11,West,260,0.0,0.0,95,0.00,,,0.00,Wunderground v.1.15,2013-07-30 05:41:00,
2013-07-30 01:43:00,62.2,60.8,30.11,West,260,0.0,0.0,95,0.00,,,0.00,Wunderground v.1.15,2013-07-30 05:43:00,
2013-07-30 01:44:00,62.2,60.8,30.12,West,260,0.0,0.0,95,0.00,,,0.00,Wunderground v.1.15,2013-07-30 05:44:00,
2013-07-30 01:49:00,62.2,60.8,30.11,West,260,0.0,0.0,95,0.00,,,0.00,Wunderground v.1.15,2013-07-30 05:49:00,
2013-07-30 01:50:00,62.1,60.7,30.11,West,260,0.0,0.0,95,0.00,,,0.00,Wunderground v.1.15,2013-07-30 05:50:00,
2013-07-30 01:51:00,62.1,60.7,30.12,West,260,0.0,0.0,95,0.00,,,0.00,Wunderground v.1.15,2013-07-30 05:51:00,
2013-07-30 01:55:00,62.0,60.6,30.12,West,260,0.0,0.0,95,0.00,,,0.00,Wunderground v.1.15,2013-07-30 05:55:00,
2013-07-30 01:56:00,62.0,60.6,30.12,West,260,0.0,0.0,95,0.00,,,0.00,Wunderground v.1.15,2013-07-30 05:56:00,
2013-07-30 01:58:00,61.9,60.5,30.12,West,260,0.0,0.0,95,0.00,,,0.00,Wunderground v.1.15,2013-07-30 05:58:00,
2013-07-30 02:00:00,61.9,60.5,30.12,West,260,0.0,0.0,95,0.00,,,0.00,Wunderground v.1.15,2013-07-30 06:00:00,
2013-07-30 02:01:00,61.8,60.4,30.12,West,260,0.0,0.0,95,0.00,,,0.00,Wunderground v.1.15,2013-07-30 06:01:00,
2013-07-30 02:03:00,61.8,60.4,30.11,West,260,0.0,1.0,95,0.00,,,0.00,Wunderground v.1.15,2013-07-30 06:03:00,
2013-07-30 02:05:00,61.8,60.6,30.11,West,260,0.0,1.0,96,0.00,,,0.00,Wunderground v.1.15,2013-07-30 06:05:00,
2013-07-30 02:06:00,61.8,60.6,30.11,West,260,0.0,1.0,96,0.00,,,0.00,Wunderground v.1.15,2013-07-30 06:06:00,
2013-07-30 02:08:00,61.8,60.6,30.12,West,260,0.0,1.0,96,0.00,,,0.00,Wunderground v.1.15,2013-07-30 06:08:00,
2013-07-30 02:10:00,61.8,60.6,30.12,West,260,0.0,0.0,96,0.00,,,0.00,Wunderground v.1.15,2013-07-30 06:10:00,
2013-07-30 02:12:00,61.7,60.5,30.12,West,260,0.0,0.0,96,0.00,,,0.00,Wunderground v.1.15,2013-07-30 06:12:00,
2013-07-30 02:13:00,61.8,60.6,30.12,West,260,0.0,0.0,96,0.00,,,0.00,Wunderground v.1.15,2013-07-30 06:13:00,
2013-07-30 02:15:00,61.7,60.5,30.12,West,260,0.0,1.0,96,0.00,,,0.00,Wunderground v.1.15,2013-07-30 06:15:00,
2013-07-30 02:17:00,61.7,60.5,30.12,West,260,0.0,1.0,96,0.00,,,0.00,Wunderground v.1.15,2013-07-30 06:17:00,
2013-07-30 02:18:00,61.7,60.5,30.12,West,260,0.0,1.0,96,0.00,,,0.00,Wunderground v.1.15,2013-07-30 06:18:00,
2013-07-30 02:19:00,61.7,60.5,30.12,West,260,0.0,1.0,96,0.00,,,0.00,Wunderground v.1.15,2013-07-30 06:19:00,
2013-07-30 02:22:00,61.6,60.4,30.11,West,260,0.0,0.0,96,0.00,,,0.00,Wunderground v.1.15,2013-07-30 06:22:00,
2013-07-30 02:23:00,61.6,60.4,30.11,West,260,0.0,1.0,96,0.00,,,0.00,Wunderground v.1.15,2013-07-30 06:23:00,
2013-07-30 02:24:00,61.6,60.2,30.11,West,260,1.0,1.0,95,0.00,,,0.00,Wunderground v.1.15,2013-07-30 06:24:00,
2013-07-30 02:27:00,61.5,60.3,30.11,West,260,0.0,1.0,96,0.00,,,0.00,Wunderground v.1.15,2013-07-30 06:27:00,
2013-07-30 02:28:00,61.5,60.3,30.11,West,260,0.0,1.0,96,0.00,,,0.00,Wunderground v.1.15,2013-07-30 06:28:00,
2013-07-30 02:29:00,61.4,60.2,30.11,West,260,0.0,0.0,96,0.00,,,0.00,Wunderground v.1.15,2013-07-30 06:29:00,
2013-07-30 02:33:00,61.4,60.2,30.12,West,260,0.0,0.0,96,0.00,,,0.00,Wunderground v.1.15,2013-07-30 06:33:00,
2013-07-30 02:34:00,61.4,60.2,30.12,West,260,0.0,0.0,96,0.00,,,0.00,Wunderground v.1.15,2013-07-30 06:34:00,
2013-07-30 02:38:00,61.4,60.2,30.11,West,260,0.0,0.0,96,0.00,,,0.00,Wunderground v.1.15,2013-07-30 06:38:00,
2013-07-30 02:40:00,61.3,59.9,30.12,West,260,0.0,0.0,95,0.00,,,0.00,Wunderground v.1.15,2013-07-30 06:40:00,
2013-07-30 02:43:00,61.2,59.8,30.12,West,260,0.0,0.0,95,0.00,,,0.00,Wunderground v.1.15,2013-07-30 06:43:00,
2013-07-30 02:44:00,61.1,59.7,30.11,West,260,0.0,0.0,95,0.00,,,0.00,Wunderground v.1.15,2013-07-30 06:44:00,
2013-07-30 02:45:00,61.0,59.6,30.11,West,260,0.0,0.0,95,0.00,,,0.00,Wunderground v.1.15,2013-07-30 06:45:00,
2013-07-30 02:48:00,60.9,59.5,30.11,West,260,0.0,0.0,95,0.00,,,0.00,Wunderground v.1.15,2013-07-30 06:48:00,
2013-07-30 02:49:00,60.9,59.5,30.11,West,260,0.0,0.0,95,0.00,,,0.00,Wunderground v.1.15,2013-07-30 06:49:00,
2013-07-30 02:50:00,60.8,59.4,30.11,West,260,0.0,1.0,95,0.00,,,0.00,Wunderground v.1.15,2013-07-30 06:50:00,
2013-07-30 02:53:00,60.7,59.3,30.11,West,260,1.0,2.0,95,0.00,,,0.00,Wunderground v.1.15,2013-07-30 06:53:00,
2013-07-30 02:54:00,60.7,59.3,30.11,West,260,0.0,2.0,95,0.00,,,0.00,Wunderground v.1.15,2013-07-30 06:54:00,
2013-07-30 02:55:00,60.7,59.6,30.11,West,260,0.0,2.0,96,0.00,,,0.00,Wunderground v.1.15,2013-07-30 06:55:00,
2013-07-30 02:59:00,60.8,59.7,30.11,West,260,1.0,2.0,96,0.00,,,0.00,Wunderground v.1.15,2013-07-30 06:59:00,
2013-07-30 03:00:00,60.8,59.7,30.11,West,260,0.0,1.0,96,0.00,,,0.00,Wunderground v.1.15,2013-07-30 07:00:00,
2013-07-30 03:01:00,60.8,59.7,30.11,West,260,0.0,1.0,96,0.00,,,0.00,Wunderground v.1.15,2013-07-30 07:01:00,
2013-07-30 03:04:00,60.8,59.7,30.11,West,260,0.0,2.0,96,0.00,,,0.00,Wunderground v.1.15,2013-07-30 07:04:00,
2013-07-30 03:05:00,60.8,59.7,30.11,West,260,0.0,2.0,96,0.00,,,0.00,Wunderground v.1.15,2013-07-30 07:05:00,
2013-07-30 03:06:00,60.8,59.7,30.11,West,260,0.0,2.0,96,0.00,,,0.00,Wunderground v.1.15,2013-07-30 07:06:00,
2013-07-30 03:10:00,60.8,59.7,30.11,West,260,0.0,0.0,96,0.00,,,0.00,Wunderground v.1.15,2013-07-30 07:10:00,
2013-07-30 03:11:00,60.8,59.7,30.11,West,260,0.0,0.0,96,0.00,,,0.00,Wunderground v.1.15,2013-07-30 07:11:00,
2013-07-30 03:12:00,60.7,59.6,30.11,West,260,0.0,0.0,96,0.00,,,0.00,Wunderground v.1.15,2013-07-30 07:12:00,
2013-07-30 03:15:00,60.7,59.6,30.11,West,260,0.0,0.0,96,0.00,,,0.00,Wunderground v.1.15,2013-07-30 07:15:00,
2013-07-30 03:16:00,60.6,59.5,30.11,West,260,0.0,0.0,96,0.00,,,0.00,Wunderground v.1.15,2013-07-30 07:16:00,
2013-07-30 03:17:00,60.6,59.5,30.11,West,260,0.0,1.0,96,0.00,,,0.00,Wunderground v.1.15,2013-07-30 07:17:00,
2013-07-30 03:18:00,60.5,59.4,30.11,West,260,0.0,1.0,96,0.00,,,0.00,Wunderground v.1.15,2013-07-30 07:18:00,
2013-07-30 03:20:00,60.5,59.4,30.11,West,260,1.0,1.0,96,0.00,,,0.00,Wunderground v.1.15,2013-07-30 07:20:00,
2013-07-30 03:21:00,60.5,59.4,30.11,West,260,0.0,2.0,96,0.00,,,0.00,Wunderground v.1.15,2013-07-30 07:21:00,
2013-07-30 03:23:00,60.4,59.3,30.11,West,260,0.0,2.0,96,0.00,,,0.00,Wunderground v.1.15,2013-07-30 07:23:00,
2013-07-30 03:26:00,60.5,59.4,30.11,West,260,0.0,3.0,96,0.00,,,0.00,Wunderground v.1.15,2013-07-30 07:26:00,
2013-07-30 03:28:00,60.5,59.4,30.11,West,260,0.0,3.0,96,0.00,,,0.00,Wunderground v.1.15,2013-07-30 07:28:00,
2013-07-30 03:31:00,60.5,59.6,30.12,West,260,0.0,0.0,97,0.00,,,0.00,Wunderground v.1.15,2013-07-30 07:31:00,
2013-07-30 03:32:00,60.5,59.6,30.12,West,260,0.0,0.0,97,0.00,,,0.00,Wunderground v.1.15,2013-07-30 07:32:00,
2013-07-30 03:33:00,60.5,59.6,30.12,West,260,0.0,0.0,97,0.00,,,0.00,Wunderground v.1.15,2013-07-30 07:33:00,
2013-07-30 03:36:00,60.5,59.4,30.12,West,260,0.0,1.0,96,0.00,,,0.00,Wunderground v.1.15,2013-07-30 07:36:00,
2013-07-30 03:38:00,60.5,59.4,30.12,West,260,0.0,1.0,96,0.00,,,0.00,Wunderground v.1.15,2013-07-30 07:38:00,
2013-07-30 03:39:00,60.5,59.4,30.12,West,260,0.0,1.0,96,0.00,,,0.00,Wunderground v.1.15,2013-07-30 07:39:00,
2013-07-30 03:42:00,60.4,59.3,30.12,West,260,0.0,0.0,96,0.00,,,0.00,Wunderground v.1.15,2013-07-30 07:42:00,
2013-07-30 03:43:00,60.4,59.3,30.12,West,260,0.0,0.0,96,0.00,,,0.00,Wunderground v.1.15,2013-07-30 07:43:00,
2013-07-30 03:44:00,60.3,59.2,30.12,West,260,1.0,1.0,96,0.00,,,0.00,Wunderground v.1.15,2013-07-30 07:44:00,
2013-07-30 03:48:00,60.2,59.1,30.12,West,260,0.0,2.0,96,0.00,,,0.00,Wunderground v.1.15,2013-07-30 07:48:00,
2013-07-30 03:49:00,60.2,59.1,30.12,West,260,0.0,2.0,96,0.00,,,0.00,Wunderground v.1.15,2013-07-30 07:49:00,
2013-07-30 03:53:00,60.3,59.2,30.12,West,260,0.0,2.0,96,0.00,,,0.00,Wunderground v.1.15,2013-07-30 07:53:00,
2013-07-30 03:55:00,60.3,59.2,30.12,West,260,1.0,2.0,96,0.00,,,0.00,Wunderground v.1.15,2013-07-30 07:55:00,
2013-07-30 03:59:00,60.3,59.2,30.12,West,260,0.0,2.0,96,0.00,,,0.00,Wunderground v.1.15,2013-07-30 07:59:00,
2013-07-30 04:00:00,60.3,59.2,30.12,West,260,0.0,0.0,96,0.00,,,0.00,Wunderground v.1.15,2013-07-30 08:00:00,
2013-07-30 04:04:00,60.2,59.1,30.12,West,260,0.0,1.0,96,0.00,,,0.00,Wunderground v.1.15,2013-07-30 08:04:00,
2013-07-30 04:05:00,60.2,59.1,30.12,West,260,0.0,1.0,96,0.00,,,0.00,Wunderground v.1.15,2013-07-30 08:05:00,
2013-07-30 04:09:00,60.1,59.0,30.12,West,260,0.0,1.0,96,0.00,,,0.00,Wunderground v.1.15,2013-07-30 08:09:00,
2013-07-30 04:10:00,60.0,58.9,30.12,West,260,0.0,1.0,96,0.00,,,0.00,Wunderground v.1.15,2013-07-30 08:10:00,
2013-07-30 04:14:00,60.0,58.9,30.12,West,260,0.0,2.0,96,0.00,,,0.00,Wunderground v.1.15,2013-07-30 08:14:00,
2013-07-30 04:15:00,60.0,58.9,30.11,West,260,0.0,2.0,96,0.00,,,0.00,Wunderground v.1.15,2013-07-30 08:15:00,
2013-07-30 04:17:00,60.0,58.9,30.11,West,260,1.0,3.0,96,0.00,,,0.00,Wunderground v.1.15,2013-07-30 08:17:00,
2013-07-30 04:19:00,60.0,59.1,30.11,West,260,0.0,1.0,97,0.00,,,0.00,Wunderground v.1.15,2013-07-30 08:19:00,
2013-07-30 04:20:00,60.0,59.1,30.11,West,260,0.0,1.0,97,0.00,,,0.00,Wunderground v.1.15,2013-07-30 08:20:00,
2013-07-30 04:21:00,60.0,59.1,30.11,West,260,2.0,2.0,97,0.00,,,0.00,Wunderground v.1.15,2013-07-30 08:21:00,
2013-07-30 04:22:00,60.0,59.1,30.11,West,260,0.0,3.0,97,0.00,,,0.00,Wunderground v.1.15,2013-07-30 08:22:00,
2013-07-30 04:24:00,60.0,59.1,30.11,West,260,0.0,3.0,97,0.00,,,0.00,Wunderground v.1.15,2013-07-30 08:24:00,
2013-07-30 04:25:00,60.0,59.1,30.11,West,260,0.0,3.0,97,0.00,,,0.00,Wunderground v.1.15,2013-07-30 08:25:00,
2013-07-30 04:26:00,60.0,59.1,30.11,West,260,0.0,3.0,97,0.00,,,0.00,Wunderground v.1.15,2013-07-30 08:26:00,
2013-07-30 04:28:00,60.1,59.2,30.11,West,260,1.0,3.0,97,0.00,,,0.00,Wunderground v.1.15,2013-07-30 08:28:00,
2013-07-30 04:29:00,60.1,59.2,30.11,West,260,0.0,0.0,97,0.00,,,0.00,Wunderground v.1.15,2013-07-30 08:29:00,
2013-07-30 04:31:00,60.1,59.2,30.11,West,260,0.0,0.0,97,0.00,,,0.00,Wunderground v.1.15,2013-07-30 08:31:00,
2013-07-30 04:33:00,60.1,59.2,30.11,West,260,0.0,0.0,97,0.00,,,0.00,Wunderground v.1.15,2013-07-30 08:33:00,
2013-07-30 04:34:00,60.0,59.1,30.11,West,260,0.0,0.0,97,0.00,,,0.00,Wunderground v.1.15,2013-07-30 08:34:00,
2013-07-30 04:35:00,60.0,59.1,30.11,West,260,0.0,0.0,97,0.00,,,0.00,Wunderground v.1.15,2013-07-30 08:35:00,
2013-07-30 04:36:00,60.0,59.1,30.11,West,260,0.0,0.0,97,0.00,,,0.00,Wunderground v.1.15,2013-07-30 08:36:00,
2013-07-30 04:38:00,60.0,59.1,30.11,West,260,0.0,0.0,97,0.00,,,0.00,Wunderground v.1.15,2013-07-30 08:38:00,
2013-07-30 04:39:00,60.0,59.1,30.11,West,260,0.0,0.0,97,0.00,,,0.00,Wunderground v.1.15,2013-07-30 08:39:00,
2013-07-30 04:40:00,60.0,59.1,30.12,West,260,0.0,0.0,97,0.00,,,0.00,Wunderground v.1.15,2013-07-30 08:40:00,
2013-07-30 04:41:00,60.0,59.1,30.11,West,260,0.0,0.0,97,0.00,,,0.00,Wunderground v.1.15,2013-07-30 08:41:00,
2013-07-30 04:42:00,60.0,59.1,30.11,West,260,0.0,0.0,97,0.00,,,0.00,Wunderground v.1.15,2013-07-30 08:42:00,
2013-07-30 04:44:00,60.0,59.1,30.12,West,260,0.0,1.0,97,0.00,,,0.00,Wunderground v.1.15,2013-07-30 08:44:00,
2013-07-30 04:45:00,59.9,58.8,30.12,West,260,0.0,2.0,96,0.00,,,0.00,Wunderground v.1.15,2013-07-30 08:45:00,
2013-07-30 04:46:00,59.9,58.8,30.12,West,260,0.0,2.0,96,0.00,,,0.00,Wunderground v.1.15,2013-07-30 08:46:00,
2013-07-30 04:47:00,59.9,58.8,30.12,West,260,0.0,2.0,96,0.00,,,0.00,Wunderground v.1.15,2013-07-30 08:47:00,
2013-07-30 04:49:00,59.9,58.8,30.12,West,260,0.0,2.0,96,0.00,,,0.00,Wunderground v.1.15,2013-07-30 08:49:00,
2013-07-30 04:51:00,59.8,58.7,30.12,West,260,0.0,0.0,96,0.00,,,0.00,Wunderground v.1.15,2013-07-30 08:51:00,
2013-07-30 04:52:00,59.8,58.7,30.12,West,260,0.0,0.0,96,0.00,,,0.00,Wunderground v.1.15,2013-07-30 08:52:00,
2013-07-30 04:54:00,59.7,58.6,30.12,West,260,0.0,0.0,96,0.00,,,0.00,Wunderground v.1.15,2013-07-30 08:54:00,
2013-07-30 04:57:00,59.6,58.5,30.12,West,260,0.0,0.0,96,0.00,,,0.00,Wunderground v.1.15,2013-07-30 08:57:00,
2013-07-30 05:00:00,59.6,58.5,30.12,West,260,0.0,0.0,96,0.00,,,0.00,Wunderground v.1.15,2013-07-30 09:00:00,
2013-07-30 05:01:00,59.6,58.5,30.12,West,260,1.0,1.0,96,0.00,,,0.00,Wunderground v.1.15,2013-07-30 09:01:00,
2013-07-30 05:02:00,59.6,58.5,30.12,West,260,0.0,1.0,96,0.00,,,0.00,Wunderground v.1.15,2013-07-30 09:02:00,
2013-07-30 05:05:00,59.5,58.4,30.11,West,260,0.0,1.0,96,0.00,,,0.00,Wunderground v.1.15,2013-07-30 09:05:00,
2013-07-30 05:07:00,59.5,58.4,30.11,West,260,2.0,2.0,96,0.00,,,0.00,Wunderground v.1.15,2013-07-30 09:07:00,
2013-07-30 05:08:00,59.5,58.4,30.12,West,260,0.0,2.0,96,0.00,,,0.00,Wunderground v.1.15,2013-07-30 09:08:00,
2013-07-30 05:10:00,59.4,58.3,30.12,West,260,0.0,0.0,96,0.00,,,0.00,Wunderground v.1.15,2013-07-30 09:10:00,
2013-07-30 05:12:00,59.4,58.3,30.12,West,260,0.0,1.0,96,0.00,,,0.00,Wunderground v.1.15,2013-07-30 09:12:00,
2013-07-30 05:13:00,59.3,58.2,30.12,West,260,0.0,1.0,96,0.00,,,0.00,Wunderground v.1.15,2013-07-30 09:13:00,
2013-07-30 05:14:00,59.3,58.2,30.12,West,260,0.0,1.0,96,0.00,,,0.00,Wunderground v.1.15,2013-07-30 09:14:00,
2013-07-30 05:15:00,59.3,58.2,30.12,West,260,0.0,1.0,96,0.00,,,0.00,Wunderground v.1.15,2013-07-30 09:15:00,
2013-07-30 05:17:00,59.3,58.2,30.12,West,260,0.0,1.0,96,0.00,,,0.00,Wunderground v.1.15,2013-07-30 09:17:00,
2013-07-30 05:19:00,59.2,58.1,30.12,West,260,1.0,1.0,96,0.00,,,0.00,Wunderground v.1.15,2013-07-30 09:19:00,
2013-07-30 05:21:00,59.2,58.1,30.12,West,260,0.0,1.0,96,0.00,,,0.00,Wunderground v.1.15,2013-07-30 09:21:00,
2013-07-30 05:23:00,59.2,58.1,30.12,West,260,0.0,1.0,96,0.00,,,0.00,Wunderground v.1.15,2013-07-30 09:23:00,
2013-07-30 05:24:00,59.1,58.0,30.12,West,260,0.0,1.0,96,0.00,,,0.00,Wunderground v.1.15,2013-07-30 09:24:00,
2013-07-30 05:28:00,59.1,58.0,30.12,West,260,0.0,2.0,96,0.00,,,0.00,Wunderground v.1.15,2013-07-30 09:28:00,
2013-07-30 05:29:00,59.1,58.0,30.12,West,260,0.0,2.0,96,0.00,,,0.00,Wunderground v.1.15,2013-07-30 09:29:00,
2013-07-30 05:30:00,59.1,58.0,30.12,West,260,1.0,1.0,96,0.00,,,0.00,Wunderground v.1.15,2013-07-30 09:30:00,
2013-07-30 05:33:00,59.3,58.4,30.12,West,260,0.0,1.0,97,0.00,,,0.00,Wunderground v.1.15,2013-07-30 09:33:00,
2013-07-30 05:34:00,59.3,58.4,30.12,West,260,0.0,1.0,97,0.00,,,0.00,Wunderground v.1.15,2013-07-30 09:34:00,
2013-07-30 05:35:00,59.3,58.4,30.12,West,260,0.0,1.0,97,0.00,,,0.00,Wunderground v.1.15,2013-07-30 09:35:00,
2013-07-30 05:36:00,59.3,58.4,30.12,West,260,0.0,1.0,97,0.00,,,0.00,Wunderground v.1.15,2013-07-30 09:36:00,
2013-07-30 05:38:00,59.3,58.4,30.12,West,260,0.0,1.0,97,0.00,,,0.00,Wunderground v.1.15,2013-07-30 09:38:00,
2013-07-30 05:39:00,59.3,58.4,30.12,West,260,0.0,1.0,97,0.00,,,0.00,Wunderground v.1.15,2013-07-30 09:39:00,
2013-07-30 05:40:00,59.3,58.4,30.13,West,260,0.0,0.0,97,0.00,,,0.00,Wunderground v.1.15,2013-07-30 09:40:00,
2013-07-30 05:41:00,59.3,58.4,30.13,West,260,0.0,0.0,97,0.00,,,0.00,Wunderground v.1.15,2013-07-30 09:41:00,
2013-07-30 05:43:00,59.3,58.4,30.13,West,260,0.0,0.0,97,0.00,,,0.00,Wunderground v.1.15,2013-07-30 09:43:00,
2013-07-30 05:44:00,59.3,58.4,30.13,West,260,0.0,0.0,97,0.00,,,0.00,Wunderground v.1.15,2013-07-30 09:44:00,
2013-07-30 05:45:00,59.3,58.4,30.13,West,260,0.0,0.0,97,0.00,,,0.00,Wunderground v.1.15,2013-07-30 09:45:00,
2013-07-30 05:46:00,59.2,58.3,30.13,West,260,0.0,0.0,97,0.00,,,0.00,Wunderground v.1.15,2013-07-30 09:46:00,
2013-07-30 05:48:00,59.3,58.4,30.13,West,260,0.0,0.0,97,0.00,,,0.00,Wunderground v.1.15,2013-07-30 09:48:00,
2013-07-30 05:49:00,59.3,58.4,30.13,West,260,0.0,0.0,97,0.00,,,0.00,Wunderground v.1.15,2013-07-30 09:49:00,
2013-07-30 05:50:00,59.3,58.4,30.13,West,260,0.0,0.0,97,0.00,,,0.00,Wunderground v.1.15,2013-07-30 09:50:00,
2013-07-30 05:51:00,59.2,58.1,30.13,West,260,0.0,0.0,96,0.00,,,0.00,Wunderground v.1.15,2013-07-30 09:51:00,
2013-07-30 05:53:00,59.2,58.1,30.13,West,260,0.0,0.0,96,0.00,,,0.00,Wunderground v.1.15,2013-07-30 09:53:00,
2013-07-30 05:54:00,59.2,58.1,30.13,West,260,0.0,0.0,96,0.00,,,0.00,Wunderground v.1.15,2013-07-30 09:54:00,
2013-07-30 05:55:00,59.2,58.1,30.13,West,260,0.0,0.0,96,0.00,,,0.00,Wunderground v.1.15,2013-07-30 09:55:00,
2013-07-30 05:56:00,59.2,58.1,30.13,West,260,0.0,0.0,96,0.00,,,0.00,Wunderground v.1.15,2013-07-30 09:56:00,
2013-07-30 05:59:00,59.2,58.1,30.13,West,260,0.0,0.0,96,0.00,,,0.00,Wunderground v.1.15,2013-07-30 09:59:00,
2013-07-30 06:02:00,59.2,58.3,30.13,West,260,0.0,0.0,97,0.00,,,0.00,Wunderground v.1.15,2013-07-30 10:02:00,
2013-07-30 06:03:00,59.2,58.3,30.13,West,260,0.0,1.0,97,0.00,,,0.00,Wunderground v.1.15,2013-07-30 10:03:00,
2013-07-30 06:04:00,59.3,58.4,30.13,West,260,0.0,1.0,97,0.00,,,0.00,Wunderground v.1.15,2013-07-30 10:04:00,
2013-07-30 06:07:00,59.3,58.4,30.13,West,260,0.0,1.0,97,0.00,,,0.00,Wunderground v.1.15,2013-07-30 10:07:00,
2013-07-30 06:08:00,59.3,58.4,30.13,West,260,0.0,1.0,97,0.00,,,0.00,Wunderground v.1.15,2013-07-30 10:08:00,
2013-07-30 06:10:00,59.3,58.4,30.13,West,260,0.0,0.0,97,0.00,,,0.00,Wunderground v.1.15,2013-07-30 10:10:00,
2013-07-30 06:12:00,59.3,58.4,30.13,West,260,0.0,0.0,97,0.00,,,0.00,Wunderground v.1.15,2013-07-30 10:12:00,
2013-07-30 06:13:00,59.3,58.4,30.13,West,260,0.0,0.0,97,0.00,,,0.00,Wunderground v.1.15,2013-07-30 10:13:00,
2013-07-30 06:15:00,59.3,58.4,30.13,West,260,0.0,0.0,97,0.00,,,0.00,Wunderground v.1.15,2013-07-30 10:15:00,
2013-07-30 06:16:00,59.3,58.4,30.13,West,260,0.0,0.0,97,0.00,,,0.00,Wunderground v.1.15,2013-07-30 10:16:00,
2013-07-30 06:18:00,59.2,58.3,30.13,West,260,0.0,0.0,97,0.00,,,0.00,Wunderground v.1.15,2013-07-30 10:18:00,
2013-07-30 06:20:00,59.2,58.3,30.13,West,260,1.0,1.0,97,0.00,,,0.00,Wunderground v.1.15,2013-07-30 10:20:00,
2013-07-30 06:21:00,59.2,58.3,30.13,West,260,1.0,1.0,97,0.00,,,0.00,Wunderground v.1.15,2013-07-30 10:21:00,
2013-07-30 06:23:00,59.2,58.3,30.13,West,260,0.0,1.0,97,0.00,,,0.00,Wunderground v.1.15,2013-07-30 10:23:00,
2013-07-30 06:25:00,59.2,58.3,30.13,West,260,0.0,1.0,97,0.00,,,0.00,Wunderground v.1.15,2013-07-30 10:25:00,
2013-07-30 06:26:00,59.2,58.3,30.13,West,260,0.0,1.0,97,0.00,,,0.00,Wunderground v.1.15,2013-07-30 10:26:00,
2013-07-30 06:28:00,59.2,58.3,30.13,West,260,0.0,1.0,97,0.00,,,0.00,Wunderground v.1.15,2013-07-30 10:28:00,
2013-07-30 06:29:00,59.2,58.3,30.13,West,260,0.0,1.0,97,0.00,,,0.00,Wunderground v.1.15,2013-07-30 10:29:00,
2013-07-30 06:30:00,59.2,58.3,30.14,West,260,0.0,0.0,97,0.00,,,0.00,Wunderground v.1.15,2013-07-30 10:30:00,
2013-07-30 06:31:00,59.1,58.2,30.14,West,260,0.0,1.0,97,0.00,,,0.00,Wunderground v.1.15,2013-07-30 10:31:00,
2013-07-30 06:34:00,59.2,58.3,30.14,West,260,0.0,1.0,97,0.00,,,0.00,Wunderground v.1.15,2013-07-30 10:34:00,
2013-07-30 06:35:00,59.2,58.3,30.14,West,260,0.0,1.0,97,0.00,,,0.00,Wunderground v.1.15,2013-07-30 10:35:00,
2013-07-30 06:36:00,59.2,58.3,30.14,West,260,0.0,1.0,97,0.00,,,0.00,Wunderground v.1.15,2013-07-30 10:36:00,
2013-07-30 06:39:00,59.1,58.2,30.14,West,260,0.0,1.0,97,0.00,,,0.00,Wunderground v.1.15,2013-07-30 10:39:00,
2013-07-30 06:40:00,59.1,58.2,30.14,West,260,0.0,0.0,97,0.00,,,0.00,Wunderground v.1.15,2013-07-30 10:40:00,
2013-07-30 06:41:00,59.1,58.2,30.14,West,260,1.0,1.0,97,0.00,,,0.00,Wunderground v.1.15,2013-07-30 10:41:00,
2013-07-30 06:42:00,59.1,58.2,30.14,West,260,1.0,3.0,97,0.00,,,0.00,Wunderground v.1.15,2013-07-30 10:42:00,
2013-07-30 06:44:00,59.0,57.9,30.14,West,260,0.0,3.0,96,0.00,,,0.00,Wunderground v.1.15,2013-07-30 10:44:00,
2013-07-30 06:45:00,59.0,57.9,30.14,West,260,0.0,3.0,96,0.00,,,0.00,Wunderground v.1.15,2013-07-30 10:45:00,
2013-07-30 06:46:00,59.0,57.9,30.14,West,260,0.0,3.0,96,0.00,,,0.00,Wunderground v.1.15,2013-07-30 10:46:00,
2013-07-30 06:47:00,59.0,58.2,30.14,West,260,0.0,3.0,97,0.00,,,0.00,Wunderground v.1.15,2013-07-30 10:47:00,
2013-07-30 06:50:00,59.0,58.2,30.14,West,260,0.0,1.0,97,0.00,,,0.00,Wunderground v.1.15,2013-07-30 10:50:00,
2013-07-30 06:51:00,59.0,58.2,30.15,West,260,0.0,1.0,97,0.00,,,0.00,Wunderground v.1.15,2013-07-30 10:51:00,
2013-07-30 06:52:00,59.0,58.2,30.15,West,260,0.0,1.0,97,0.00,,,0.00,Wunderground v.1.15,2013-07-30 10:52:00,
2013-07-30 06:55:00,59.0,58.2,30.14,West,260,0.0,1.0,97,0.00,,,0.00,Wunderground v.1.15,2013-07-30 10:55:00,
2013-07-30 06:57:00,59.0,58.2,30.15,West,260,0.0,1.0,97,0.00,,,0.00,Wunderground v.1.15,2013-07-30 10:57:00,
2013-07-30 07:00:00,59.0,58.2,30.14,West,260,0.0,0.0,97,0.00,,,0.00,Wunderground v.1.15,2013-07-30 11:00:00,
2013-07-30 07:01:00,59.0,58.2,30.14,West,260,0.0,0.0,97,0.00,,,0.00,Wunderground v.1.15,2013-07-30 11:01:00,
2013-07-30 07:02:00,59.0,58.2,30.14,West,260,0.0,0.0,97,0.00,,,0.00,Wunderground v.1.15,2013-07-30 11:02:00,
2013-07-30 07:03:00,59.0,58.2,30.14,West,260,0.0,0.0,97,0.00,,,0.00,Wunderground v.1.15,2013-07-30 11:03:00,
2013-07-30 07:05:00,59.0,58.2,30.14,West,260,0.0,0.0,97,0.00,,,0.00,Wunderground v.1.15,2013-07-30 11:05:00,
2013-07-30 07:06:00,59.0,58.2,30.14,West,260,0.0,0.0,97,0.00,,,0.00,Wunderground v.1.15,2013-07-30 11:06:00,
2013-07-30 07:07:00,59.0,58.2,30.14,West,260,0.0,0.0,97,0.00,,,0.00,Wunderground v.1.15,2013-07-30 11:07:00,
2013-07-30 07:08:00,59.0,58.2,30.14,West,260,0.0,0.0,97,0.00,,,0.00,Wunderground v.1.15,2013-07-30 11:08:00,
2013-07-30 07:11:00,59.0,58.2,30.15,West,260,0.0,0.0,97,0.00,,,0.00,Wunderground v.1.15,2013-07-30 11:11:00,
2013-07-30 07:12:00,59.0,58.2,30.15,West,260,0.0,0.0,97,0.00,,,0.00,Wunderground v.1.15,2013-07-30 11:12:00,
2013-07-30 07:13:00,59.0,58.2,30.15,West,260,0.0,1.0,97,0.00,,,0.00,Wunderground v.1.15,2013-07-30 11:13:00,
2013-07-30 07:16:00,59.1,58.2,30.15,West,260,0.0,1.0,97,0.00,,,0.00,Wunderground v.1.15,2013-07-30 11:16:00,
2013-07-30 07:17:00,59.1,58.2,30.15,West,260,0.0,1.0,97,0.00,,,0.00,Wunderground v.1.15,2013-07-30 11:17:00,
2013-07-30 07:18:00,59.2,58.3,30.15,West,260,0.0,1.0,97,0.00,,,0.00,Wunderground v.1.15,2013-07-30 11:18:00,
2013-07-30 07:19:00,59.2,58.3,30.15,West,260,0.0,1.0,97,0.00,,,0.00,Wunderground v.1.15,2013-07-30 11:19:00,
2013-07-30 07:21:00,59.3,58.4,30.15,West,260,0.0,0.0,97,0.00,,,0.00,Wunderground v.1.15,2013-07-30 11:21:00,
2013-07-30 07:22:00,59.3,58.4,30.15,West,260,0.0,0.0,97,0.00,,,0.00,Wunderground v.1.15,2013-07-30 11:22:00,
2013-07-30 07:24:00,59.4,58.5,30.15,West,260,0.0,0.0,97,0.00,,,0.00,Wunderground v.1.15,2013-07-30 11:24:00,
2013-07-30 07:26:00,59.4,58.5,30.15,West,260,0.0,0.0,97,0.00,,,0.00,Wunderground v.1.15,2013-07-30 11:26:00,
2013-07-30 07:27:00,59.5,58.6,30.15,West,260,0.0,0.0,97,0.00,,,0.00,Wunderground v.1.15,2013-07-30 11:27:00,
2013-07-30 07:29:00,59.5,58.6,30.15,West,260,0.0,0.0,97,0.00,,,0.00,Wunderground v.1.15,2013-07-30 11:29:00,
2013-07-30 07:30:00,59.6,58.7,30.15,West,260,0.0,0.0,97,0.00,,,0.00,Wunderground v.1.15,2013-07-30 11:30:00,
2013-07-30 07:31:00,59.6,58.7,30.15,West,260,0.0,0.0,97,0.00,,,0.00,Wunderground v.1.15,2013-07-30 11:31:00,
2013-07-30 07:32:00,59.6,58.7,30.15,West,260,0.0,0.0,97,0.00,,,0.00,Wunderground v.1.15,2013-07-30 11:32:00,
2013-07-30 07:34:00,59.6,58.7,30.15,West,260,0.0,0.0,97,0.00,,,0.00,Wunderground v.1.15,2013-07-30 11:34:00,
2013-07-30 07:35:00,59.7,58.8,30.15,West,260,0.0,0.0,97,0.00,,,0.00,Wunderground v.1.15,2013-07-30 11:35:00,
2013-07-30 07:37:00,59.7,58.8,30.15,West,260,0.0,0.0,97,0.00,,,0.00,Wunderground v.1.15,2013-07-30 11:37:00,
2013-07-30 07:38:00,59.8,58.9,30.15,West,260,0.0,0.0,97,0.00,,,0.00,Wunderground v.1.15,2013-07-30 11:38:00,
2013-07-30 07:39:00,59.8,58.9,30.15,West,260,0.0,0.0,97,0.00,,,0.00,Wunderground v.1.15,2013-07-30 11:39:00,
2013-07-30 07:41:00,59.9,59.0,30.15,West,260,0.0,0.0,97,0.00,,,0.00,Wunderground v.1.15,2013-07-30 11:41:00,
2013-07-30 07:42:00,59.9,59.0,30.15,West,260,0.0,0.0,97,0.00,,,0.00,Wunderground v.1.15,2013-07-30 11:42:00,
2013-07-30 07:43:00,60.0,59.1,30.16,West,260,0.0,1.0,97,0.00,,,0.00,Wunderground v.1.15,2013-07-30 11:43:00,
2013-07-30 07:44:00,60.0,59.1,30.16,West,260,0.0,1.0,97,0.00,,,0.00,Wunderground v.1.15,2013-07-30 11:44:00,
2013-07-30 07:46:00,60.0,59.1,30.16,West,260,0.0,1.0,97,0.00,,,0.00,Wunderground v.1.15,2013-07-30 11:46:00,
2013-07-30 07:48:00,60.0,59.1,30.16,West,260,0.0,1.0,97,0.00,,,0.00,Wunderground v.1.15,2013-07-30 11:48:00,
2013-07-30 07:50:00,60.0,59.1,30.16,West,260,0.0,0.0,97,0.00,,,0.00,Wunderground v.1.15,2013-07-30 11:50:00,
2013-07-30 07:52:00,60.0,59.1,30.16,West,260,0.0,0.0,97,0.00,,,0.00,Wunderground v.1.15,2013-07-30 11:52:00,
2013-07-30 07:53:00,60.0,59.1,30.16,West,260,0.0,0.0,97,0.00,,,0.00,Wunderground v.1.15,2013-07-30 11:53:00,
2013-07-30 07:55:00,60.0,59.1,30.16,West,260,0.0,0.0,97,0.00,,,0.00,Wunderground v.1.15,2013-07-30 11:55:00,
2013-07-30 07:57:00,60.0,59.1,30.16,West,260,0.0,0.0,97,0.00,,,0.00,Wunderground v.1.15,2013-07-30 11:57:00,
2013-07-30 07:58:00,60.0,59.1,30.16,West,260,0.0,0.0,97,0.00,,,0.00,Wunderground v.1.15,2013-07-30 11:58:00,
2013-07-30 08:00:00,60.1,59.2,30.16,West,260,0.0,0.0,97,0.00,,,0.00,Wunderground v.1.15,2013-07-30 12:00:00,
2013-07-30 08:02:00,60.3,59.4,30.17,West,260,0.0,0.0,97,0.00,,,0.00,Wunderground v.1.15,2013-07-30 12:02:00,
2013-07-30 08:03:00,60.3,59.4,30.17,West,260,0.0,0.0,97,0.00,,,0.00,Wunderground v.1.15,2013-07-30 12:03:00,
2013-07-30 08:04:00,60.3,59.4,30.17,West,260,0.0,0.0,97,0.00,,,0.00,Wunderground v.1.15,2013-07-30 12:04:00,
2013-07-30 08:05:00,60.4,59.5,30.17,West,260,0.0,0.0,97,0.00,,,0.00,Wunderground v.1.15,2013-07-30 12:05:00,
2013-07-30 08:07:00,60.5,59.6,30.17,West,260,0.0,0.0,97,0.00,,,0.00,Wunderground v.1.15,2013-07-30 12:07:00,
2013-07-30 08:08:00,60.6,59.7,30.17,West,260,0.0,0.0,97,0.00,,,0.00,Wunderground v.1.15,2013-07-30 12:08:00,
2013-07-30 08:09:00,60.6,59.7,30.17,West,260,0.0,0.0,97,0.00,,,0.00,Wunderground v.1.15,2013-07-30 12:09:00,
2013-07-30 08:10:00,60.7,59.8,30.17,West,260,0.0,0.0,97,0.00,,,0.00,Wunderground v.1.15,2013-07-30 12:10:00,
2013-07-30 08:12:00,60.7,59.8,30.17,West,260,0.0,0.0,97,0.00,,,0.00,Wunderground v.1.15,2013-07-30 12:12:00,
2013-07-30 08:14:00,60.8,59.9,30.17,West,260,0.0,0.0,97,0.00,,,0.00,Wunderground v.1.15,2013-07-30 12:14:00,
2013-07-30 08:15:00,60.8,59.9,30.17,West,260,0.0,0.0,97,0.00,,,0.00,Wunderground v.1.15,2013-07-30 12:15:00,
2013-07-30 08:17:00,60.9,60.0,30.17,West,260,0.0,1.0,97,0.00,,,0.00,Wunderground v.1.15,2013-07-30 12:17:00,
2013-07-30 08:19:00,60.9,60.0,30.17,West,260,0.0,1.0,97,0.00,,,0.00,Wunderground v.1.15,2013-07-30 12:19:00,
2013-07-30 08:20:00,60.9,60.0,30.17,West,260,0.0,0.0,97,0.00,,,0.00,Wunderground v.1.15,2013-07-30 12:20:00,
2013-07-30 08:21:00,61.0,60.1,30.17,West,260,0.0,0.0,97,0.00,,,0.00,Wunderground v.1.15,2013-07-30 12:21:00,
2013-07-30 08:23:00,61.1,60.2,30.17,West,260,0.0,0.0,97,0.00,,,0.00,Wunderground v.1.15,2013-07-30 12:23:00,
2013-07-30 08:24:00,61.1,60.2,30.17,West,260,0.0,1.0,97,0.00,,,0.00,Wunderground v.1.15,2013-07-30 12:24:00,
2013-07-30 08:25:00,61.1,60.2,30.17,West,260,0.0,1.0,97,0.00,,,0.00,Wunderground v.1.15,2013-07-30 12:25:00,
2013-07-30 08:26:00,61.2,60.3,30.17,West,260,0.0,1.0,97,0.00,,,0.00,Wunderground v.1.15,2013-07-30 12:26:00,
2013-07-30 08:27:00,61.2,60.3,30.17,West,260,0.0,1.0,97,0.00,,,0.00,Wunderground v.1.15,2013-07-30 12:27:00,
2013-07-30 08:28:00,61.3,60.4,30.17,West,260,0.0,1.0,97,0.00,,,0.00,Wunderground v.1.15,2013-07-30 12:28:00,
2013-07-30 08:30:00,61.3,60.4,30.17,West,260,0.0,0.0,97,0.00,,,0.00,Wunderground v.1.15,2013-07-30 12:30:00,
2013-07-30 08:32:00,61.4,60.5,30.18,West,260,0.0,1.0,97,0.00,,,0.00,Wunderground v.1.15,2013-07-30 12:32:00,
2013-07-30 08:34:00,61.5,60.3,30.18,West,260,0.0,1.0,96,0.00,,,0.00,Wunderground v.1.15,2013-07-30 12:34:00,
2013-07-30 08:35:00,61.5,60.3,30.18,West,260,0.0,1.0,96,0.00,,,0.00,Wunderground v.1.15,2013-07-30 12:35:00,
2013-07-30 08:37:00,61.6,60.4,30.18,West,260,0.0,1.0,96,0.00,,,0.00,Wunderground v.1.15,2013-07-30 12:37:00,
2013-07-30 08:38:00,61.6,60.4,30.18,West,260,0.0,1.0,96,0.00,,,0.00,Wunderground v.1.15,2013-07-30 12:38:00,
2013-07-30 08:39:00,61.7,60.5,30.18,West,260,0.0,0.0,96,0.00,,,0.00,Wunderground v.1.15,2013-07-30 12:39:00,
2013-07-30 08:40:00,61.7,60.5,30.18,West,260,0.0,0.0,96,0.00,,,0.00,Wunderground v.1.15,2013-07-30 12:40:00,
2013-07-30 08:42:00,61.9,60.7,30.18,West,260,0.0,0.0,96,0.00,,,0.00,Wunderground v.1.15,2013-07-30 12:42:00,
2013-07-30 08:43:00,61.9,60.7,30.18,West,260,0.0,1.0,96,0.00,,,0.00,Wunderground v.1.15,2013-07-30 12:43:00,
2013-07-30 08:45:00,62.1,60.9,30.18,West,260,0.0,1.0,96,0.00,,,0.00,Wunderground v.1.15,2013-07-30 12:45:00,
2013-07-30 08:46:00,62.2,61.0,30.18,West,260,0.0,1.0,96,0.00,,,0.00,Wunderground v.1.15,2013-07-30 12:46:00,
2013-07-30 08:48:00,62.3,61.1,30.18,West,260,0.0,1.0,96,0.00,,,0.00,Wunderground v.1.15,2013-07-30 12:48:00,
2013-07-30 08:50:00,62.4,61.2,30.18,West,260,0.0,0.0,96,0.00,,,0.00,Wunderground v.1.15,2013-07-30 12:50:00,
2013-07-30 08:51:00,62.4,61.2,30.18,West,260,0.0,0.0,96,0.00,,,0.00,Wunderground v.1.15,2013-07-30 12:51:00,
2013-07-30 08:52:00,62.5,61.3,30.18,West,260,0.0,0.0,96,0.00,,,0.00,Wunderground v.1.15,2013-07-30 12:52:00,
2013-07-30 08:53:00,62.5,61.3,30.18,West,260,0.0,0.0,96,0.00,,,0.00,Wunderground v.1.15,2013-07-30 12:53:00,
2013-07-30 08:54:00,62.6,61.4,30.18,West,260,0.0,0.0,96,0.00,,,0.00,Wunderground v.1.15,2013-07-30 12:54:00,
2013-07-30 08:55:00,62.7,61.2,30.18,West,260,0.0,1.0,95,0.00,,,0.00,Wunderground v.1.15,2013-07-30 12:55:00,
2013-07-30 08:56:00,62.7,61.2,30.18,West,260,0.0,1.0,95,0.00,,,0.00,Wunderground v.1.15,2013-07-30 12:56:00,
2013-07-30 08:57:00,62.8,61.3,30.18,West,260,0.0,1.0,95,0.00,,,0.00,Wunderground v.1.15,2013-07-30 12:57:00,
2013-07-30 08:58:00,62.8,61.3,30.18,West,260,0.0,1.0,95,0.00,,,0.00,Wunderground v.1.15,2013-07-30 12:58:00,
2013-07-30 08:59:00,62.9,61.4,30.18,West,260,0.0,1.0,95,0.00,,,0.00,Wunderground v.1.15,2013-07-30 12:59:00,
2013-07-30 09:01:00,63.0,61.2,30.18,West,260,0.0,0.0,94,0.00,,,0.00,Wunderground v.1.15,2013-07-30 13:01:00,
2013-07-30 09:02:00,63.0,61.2,30.18,West,260,0.0,0.0,94,0.00,,,0.00,Wunderground v.1.15,2013-07-30 13:02:00,
2013-07-30 09:03:00,63.0,61.2,30.18,West,260,0.0,0.0,94,0.00,,,0.00,Wunderground v.1.15,2013-07-30 13:03:00,
2013-07-30 09:04:00,63.1,61.3,30.18,West,260,0.0,0.0,94,0.00,,,0.00,Wunderground v.1.15,2013-07-30 13:04:00,
2013-07-30 09:07:00,63.3,61.5,30.18,West,260,0.0,0.0,94,0.00,,,0.00,Wunderground v.1.15,2013-07-30 13:07:00,
2013-07-30 09:08:00,63.4,61.6,30.18,West,260,0.0,0.0,94,0.00,,,0.00,Wunderground v.1.15,2013-07-30 13:08:00,
2013-07-30 09:09:00,63.4,61.6,30.18,West,260,0.0,0.0,94,0.00,,,0.00,Wunderground v.1.15,2013-07-30 13:09:00,
2013-07-30 09:12:00,63.8,62.0,30.18,West,260,0.0,0.0,94,0.00,,,0.00,Wunderground v.1.15,2013-07-30 13:12:00,
2013-07-30 09:13:00,63.8,62.0,30.18,West,260,0.0,0.0,94,0.00,,,0.00,Wunderground v.1.15,2013-07-30 13:13:00,
2013-07-30 09:14:00,63.9,61.8,30.18,West,260,0.0,1.0,93,0.00,,,0.00,Wunderground v.1.15,2013-07-30 13:14:00,
2013-07-30 09:15:00,63.9,61.8,30.18,West,260,0.0,1.0,93,0.00,,,0.00,Wunderground v.1.15,2013-07-30 13:15:00,
2013-07-30 09:17:00,64.0,61.6,30.18,West,260,0.0,1.0,92,0.00,,,0.00,Wunderground v.1.15,2013-07-30 13:17:00,
2013-07-30 09:18:00,64.1,61.7,30.18,West,260,0.0,1.0,92,0.00,,,0.00,Wunderground v.1.15,2013-07-30 13:18:00,
2013-07-30 09:19:00,64.2,62.1,30.18,West,260,0.0,1.0,93,0.00,,,0.00,Wunderground v.1.15,2013-07-30 13:19:00,
2013-07-30 09:21:00,64.4,62.3,30.17,West,260,0.0,1.0,93,0.00,,,0.00,Wunderground v.1.15,2013-07-30 13:21:00,
2013-07-30 09:23:00,64.7,62.6,30.18,West,260,0.0,1.0,93,0.00,,,0.00,Wunderground v.1.15,2013-07-30 13:23:00,
2013-07-30 09:24:00,64.8,62.4,30.18,West,260,0.0,1.0,92,0.00,,,0.00,Wunderground v.1.15,2013-07-30 13:24:00,
2013-07-30 09:27:00,65.1,62.4,30.18,West,260,0.0,2.0,91,0.00,,,0.00,Wunderground v.1.15,2013-07-30 13:27:00,
2013-07-30 09:28:00,65.2,62.5,30.18,West,260,1.0,2.0,91,0.00,,,0.00,Wunderground v.1.15,2013-07-30 13:28:00,
2013-07-30 09:29:00,65.3,62.0,30.18,West,260,1.0,1.0,89,0.00,,,0.00,Wunderground v.1.15,2013-07-30 13:29:00,
2013-07-30 09:30:00,65.4,62.1,30.18,West,260,1.0,1.0,89,0.00,,,0.00,Wunderground v.1.15,2013-07-30 13:30:00,
2013-07-30 09:32:00,65.6,61.9,30.18,West,260,1.0,1.0,88,0.00,,,0.00,Wunderground v.1.15,2013-07-30 13:32:00,
2013-07-30 09:33:00,65.7,62.0,30.18,West,260,0.0,1.0,88,0.00,,,0.00,Wunderground v.1.15,2013-07-30 13:33:00,
2013-07-30 09:35:00,65.9,62.9,30.17,West,260,1.0,1.0,90,0.00,,,0.00,Wunderground v.1.15,2013-07-30 13:35:00,
2013-07-30 09:37:00,66.3,63.0,30.17,West,260,0.0,1.0,89,0.00,,,0.00,Wunderground v.1.15,2013-07-30 13:37:00,
2013-07-30 09:38:00,66.4,63.1,30.18,West,260,1.0,2.0,89,0.00,,,0.00,Wunderground v.1.15,2013-07-30 13:38:00,
2013-07-30 09:39:00,66.5,62.8,30.18,West,260,1.0,2.0,88,0.00,,,0.00,Wunderground v.1.15,2013-07-30 13:39:00,
2013-07-30 09:40:00,66.6,62.9,30.17,West,260,0.0,0.0,88,0.00,,,0.00,Wunderground v.1.15,2013-07-30 13:40:00,
2013-07-30 09:41:00,66.7,63.0,30.17,West,260,0.0,0.0,88,0.00,,,0.00,Wunderground v.1.15,2013-07-30 13:41:00,
2013-07-30 09:42:00,66.9,63.6,30.17,West,260,0.0,1.0,89,0.00,,,0.00,Wunderground v.1.15,2013-07-30 13:42:00,
2013-07-30 09:43:00,67.1,63.4,30.17,West,260,0.0,1.0,88,0.00,,,0.00,Wunderground v.1.15,2013-07-30 13:43:00,
2013-07-30 09:44:00,67.1,62.8,30.17,West,260,0.0,1.0,86,0.00,,,0.00,Wunderground v.1.15,2013-07-30 13:44:00,
2013-07-30 09:45:00,67.3,63.0,30.17,West,260,0.0,1.0,86,0.00,,,0.00,Wunderground v.1.15,2013-07-30 13:45:00,
2013-07-30 09:46:00,67.3,63.0,30.17,West,260,0.0,1.0,86,0.00,,,0.00,Wunderground v.1.15,2013-07-30 13:46:00,
2013-07-30 09:48:00,67.6,63.6,30.17,West,260,0.0,1.0,87,0.00,,,0.00,Wunderground v.1.15,2013-07-30 13:48:00,
2013-07-30 09:49:00,67.8,63.5,30.17,West,260,1.0,2.0,86,0.00,,,0.00,Wunderground v.1.15,2013-07-30 13:49:00,
2013-07-30 09:51:00,67.9,63.2,30.17,West,260,1.0,1.0,85,0.00,,,0.00,Wunderground v.1.15,2013-07-30 13:51:00,
2013-07-30 09:53:00,68.0,63.0,30.17,West,260,1.0,2.0,84,0.00,,,0.00,Wunderground v.1.15,2013-07-30 13:53:00,
2013-07-30 09:54:00,68.0,63.0,30.17,West,260,0.0,2.0,84,0.00,,,0.00,Wunderground v.1.15,2013-07-30 13:54:00,
2013-07-30 09:55:00,68.1,62.7,30.17,West,260,0.0,2.0,83,0.00,,,0.00,Wunderground v.1.15,2013-07-30 13:55:00,
2013-07-30 09:56:00,68.1,63.1,30.17,West,260,0.0,2.0,84,0.00,,,0.00,Wunderground v.1.15,2013-07-30 13:56:00,
2013-07-30 09:58:00,68.3,63.3,30.17,West,260,0.0,2.0,84,0.00,,,0.00,Wunderground v.1.15,2013-07-30 13:58:00,
2013-07-30 10:00:00,68.4,64.0,30.17,West,260,1.0,2.0,86,0.00,,,0.00,Wunderground v.1.15,2013-07-30 14:00:00,
2013-07-30 10:01:00,68.5,62.8,30.17,West,260,0.0,2.0,82,0.00,,,0.00,Wunderground v.1.15,2013-07-30 14:01:00,
2013-07-30 10:02:00,68.6,62.9,30.17,West,260,0.0,2.0,82,0.00,,,0.00,Wunderground v.1.15,2013-07-30 14:02:00,
2013-07-30 10:03:00,68.7,63.3,30.17,West,260,1.0,2.0,83,0.00,,,0.00,Wunderground v.1.15,2013-07-30 14:03:00,
2013-07-30 10:05:00,68.9,63.5,30.17,West,260,0.0,2.0,83,0.00,,,0.00,Wunderground v.1.15,2013-07-30 14:05:00,
2013-07-30 10:06:00,69.1,63.7,30.17,West,260,0.0,2.0,83,0.00,,,0.00,Wunderground v.1.15,2013-07-30 14:06:00,
2013-07-30 10:07:00,69.3,64.3,30.17,West,260,1.0,2.0,84,0.00,,,0.00,Wunderground v.1.15,2013-07-30 14:07:00,
2013-07-30 10:09:00,69.4,63.7,30.17,West,260,0.0,2.0,82,0.00,,,0.00,Wunderground v.1.15,2013-07-30 14:09:00,
2013-07-30 10:10:00,69.5,63.4,30.17,West,260,1.0,1.0,81,0.00,,,0.00,Wunderground v.1.15,2013-07-30 14:10:00,
2013-07-30 10:11:00,69.7,63.6,30.17,West,260,1.0,1.0,81,0.00,,,0.00,Wunderground v.1.15,2013-07-30 14:11:00,
2013-07-30 10:12:00,69.8,64.1,30.17,West,260,0.0,1.0,82,0.00,,,0.00,Wunderground v.1.15,2013-07-30 14:12:00,
2013-07-30 10:14:00,70.0,63.5,30.17,West,260,0.0,1.0,80,0.00,,,0.00,Wunderground v.1.15,2013-07-30 14:14:00,
2013-07-30 10:15:00,70.1,63.6,30.17,West,260,0.0,1.0,80,0.00,,,0.00,Wunderground v.1.15,2013-07-30 14:15:00,
2013-07-30 10:16:00,70.2,63.7,30.17,West,260,2.0,2.0,80,0.00,,,0.00,Wunderground v.1.15,2013-07-30 14:16:00,
2013-07-30 10:17:00,70.2,63.7,30.17,West,260,2.0,2.0,80,0.00,,,0.00,Wunderground v.1.15,2013-07-30 14:17:00,
2013-07-30 10:18:00,70.3,63.8,30.17,West,260,2.0,2.0,80,0.00,,,0.00,Wunderground v.1.15,2013-07-30 14:18:00,
2013-07-30 10:19:00,70.4,63.9,30.17,West,260,1.0,2.0,80,0.00,,,0.00,Wunderground v.1.15,2013-07-30 14:19:00,
2013-07-30 10:21:00,70.4,64.6,30.17,West,260,1.0,2.0,82,0.00,,,0.00,Wunderground v.1.15,2013-07-30 14:21:00,
2013-07-30 10:22:00,70.4,64.3,30.17,West,260,0.0,2.0,81,0.00,,,0.00,Wunderground v.1.15,2013-07-30 14:22:00,
2013-07-30 10:23:00,70.4,63.9,30.17,West,260,0.0,2.0,80,0.00,,,0.00,Wunderground v.1.15,2013-07-30 14:23:00,
2013-07-30 10:24:00,70.4,64.3,30.17,West,260,0.0,2.0,81,0.00,,,0.00,Wunderground v.1.15,2013-07-30 14:24:00,
2013-07-30 10:26:00,70.5,65.1,30.17,West,260,3.0,3.0,83,0.00,,,0.00,Wunderground v.1.15,2013-07-30 14:26:00,
2013-07-30 10:27:00,70.5,64.0,30.16,West,260,1.0,3.0,80,0.00,,,0.00,Wunderground v.1.15,2013-07-30 14:27:00,
2013-07-30 10:28:00,70.4,63.9,30.17,West,260,2.0,3.0,80,0.00,,,0.00,Wunderground v.1.15,2013-07-30 14:28:00,
2013-07-30 10:29:00,70.4,63.9,30.16,West,260,2.0,3.0,80,0.00,,,0.00,Wunderground v.1.15,2013-07-30 14:29:00,
2013-07-30 10:31:00,70.4,63.6,30.16,West,260,0.0,2.0,79,0.00,,,0.00,Wunderground v.1.15,2013-07-30 14:31:00,
2013-07-30 10:32:00,70.3,64.2,30.16,West,260,1.0,2.0,81,0.00,,,0.00,Wunderground v.1.15,2013-07-30 14:32:00,
2013-07-30 10:33:00,70.4,65.0,30.16,West,260,0.0,2.0,83,0.00,,,0.00,Wunderground v.1.15,2013-07-30 14:33:00,
2013-07-30 10:35:00,70.4,65.0,30.16,West,260,0.0,2.0,83,0.00,,,0.00,Wunderground v.1.15,2013-07-30 14:35:00,
2013-07-30 10:37:00,70.5,64.7,30.16,West,260,1.0,2.0,82,0.00,,,0.00,Wunderground v.1.15,2013-07-30 14:37:00,
2013-07-30 10:38:00,70.5,65.1,30.16,West,260,1.0,2.0,83,0.00,,,0.00,Wunderground v.1.15,2013-07-30 14:38:00,
2013-07-30 10:39:00,70.5,64.4,30.16,West,260,2.0,2.0,81,0.00,,,0.00,Wunderground v.1.15,2013-07-30 14:39:00,
2013-07-30 10:40:00,70.6,64.5,30.16,West,260,0.0,2.0,81,0.00,,,0.00,Wunderground v.1.15,2013-07-30 14:40:00,
2013-07-30 10:42:00,70.7,65.3,30.16,West,260,1.0,2.0,83,0.00,,,0.00,Wunderground v.1.15,2013-07-30 14:42:00,
2013-07-30 10:43:00,70.8,65.0,30.16,West,260,0.0,2.0,82,0.00,,,0.00,Wunderground v.1.15,2013-07-30 14:43:00,
2013-07-30 10:44:00,70.9,64.8,30.16,West,260,1.0,2.0,81,0.00,,,0.00,Wunderground v.1.15,2013-07-30 14:44:00,
2013-07-30 10:45:00,70.9,64.4,30.15,West,260,0.0,2.0,80,0.00,,,0.00,Wunderground v.1.15,2013-07-30 14:45:00,
2013-07-30 10:47:00,71.1,64.6,30.15,West,260,0.0,2.0,80,0.00,,,0.00,Wunderground v.1.15,2013-07-30 14:47:00,
2013-07-30 10:48:00,71.2,64.4,30.15,West,260,3.0,3.0,79,0.00,,,0.00,Wunderground v.1.15,2013-07-30 14:48:00,
2013-07-30 10:49:00,71.2,64.4,30.15,West,260,2.0,3.0,79,0.00,,,0.00,Wunderground v.1.15,2013-07-30 14:49:00,
2013-07-30 10:50:00,71.2,64.7,30.16,West,260,2.0,3.0,80,0.00,,,0.00,Wunderground v.1.15,2013-07-30 14:50:00,
2013-07-30 10:53:00,71.3,65.2,30.16,West,260,0.0,3.0,81,0.00,,,0.00,Wunderground v.1.15,2013-07-30 14:53:00,
2013-07-30 10:54:00,71.3,65.2,30.16,West,260,3.0,3.0,81,0.00,,,0.00,Wunderground v.1.15,2013-07-30 14:54:00,
2013-07-30 10:58:00,71.5,65.4,30.15,West,260,2.0,3.0,81,0.00,,,0.00,Wunderground v.1.15,2013-07-30 14:58:00,
2013-07-30 10:59:00,71.6,65.1,30.15,West,260,3.0,3.0,80,0.00,,,0.00,Wunderground v.1.15,2013-07-30 14:59:00,
2013-07-30 11:00:00,71.6,65.1,30.15,West,260,3.0,3.0,80,0.00,,,0.00,Wunderground v.1.15,2013-07-30 15:00:00,
2013-07-30 11:03:00,71.8,64.9,30.16,West,260,0.0,3.0,79,0.00,,,0.00,Wunderground v.1.15,2013-07-30 15:03:00,
2013-07-30 11:04:00,71.9,65.0,30.16,West,260,0.0,3.0,79,0.00,,,0.00,Wunderground v.1.15,2013-07-30 15:04:00,
2013-07-30 11:05:00,72.0,65.1,30.16,West,260,0.0,3.0,79,0.00,,,0.00,Wunderground v.1.15,2013-07-30 15:05:00,
2013-07-30 11:08:00,72.3,65.4,30.15,West,260,1.0,3.0,79,0.00,,,0.00,Wunderground v.1.15,2013-07-30 15:08:00,
2013-07-30 11:09:00,72.4,65.2,30.16,West,260,2.0,3.0,78,0.00,,,0.00,Wunderground v.1.15,2013-07-30 15:09:00,
2013-07-30 11:10:00,72.6,65.3,30.15,West,260,2.0,2.0,78,0.00,,,0.00,Wunderground v.1.15,2013-07-30 15:10:00,
2013-07-30 11:13:00,72.9,65.6,30.15,West,260,2.0,4.0,78,0.00,,,0.00,Wunderground v.1.15,2013-07-30 15:13:00,
2013-07-30 11:14:00,73.0,65.4,30.15,West,260,0.0,4.0,77,0.00,,,0.00,Wunderground v.1.15,2013-07-30 15:14:00,
2013-07-30 11:15:00,73.1,65.5,30.15,West,260,1.0,4.0,77,0.00,,,0.00,Wunderground v.1.15,2013-07-30 15:15:00,
2013-07-30 11:16:00,73.1,65.5,30.15,West,260,1.0,4.0,77,0.00,,,0.00,Wunderground v.1.15,2013-07-30 15:16:00,
2013-07-30 11:18:00,73.3,66.0,30.16,West,260,0.0,4.0,78,0.00,,,0.00,Wunderground v.1.15,2013-07-30 15:18:00,
2013-07-30 11:19:00,73.3,66.0,30.16,West,260,0.0,4.0,78,0.00,,,0.00,Wunderground v.1.15,2013-07-30 15:19:00,
2013-07-30 11:21:00,73.6,67.4,30.15,West,260,0.0,2.0,81,0.00,,,0.00,Wunderground v.1.15,2013-07-30 15:21:00,
2013-07-30 11:24:00,74.0,65.6,30.16,West,260,0.0,3.0,75,0.00,,,0.00,Wunderground v.1.15,2013-07-30 15:24:00,
2013-07-30 11:25:00,74.1,66.0,30.15,West,260,1.0,4.0,76,0.00,,,0.00,Wunderground v.1.15,2013-07-30 15:25:00,
2013-07-30 11:26:00,74.1,65.7,30.15,West,260,2.0,5.0,75,0.00,,,0.00,Wunderground v.1.15,2013-07-30 15:26:00,
2013-07-30 11:27:00,74.1,64.9,30.15,West,260,0.0,5.0,73,0.00,,,0.00,Wunderground v.1.15,2013-07-30 15:27:00,
2013-07-30 11:29:00,74.2,65.8,30.15,West,260,1.0,5.0,75,0.00,,,0.00,Wunderground v.1.15,2013-07-30 15:29:00,
2013-07-30 11:30:00,74.3,66.2,30.15,West,260,1.0,3.0,76,0.00,,,0.00,Wunderground v.1.15,2013-07-30 15:30:00,
2013-07-30 11:31:00,74.3,66.2,30.15,West,260,1.0,4.0,76,0.00,,,0.00,Wunderground v.1.15,2013-07-30 15:31:00,
2013-07-30 11:32:00,74.4,66.3,30.15,West,260,0.0,4.0,76,0.00,,,0.00,Wunderground v.1.15,2013-07-30 15:32:00,
2013-07-30 11:34:00,74.5,65.7,30.16,West,260,3.0,4.0,74,0.00,,,0.00,Wunderground v.1.15,2013-07-30 15:34:00,
2013-07-30 11:36:00,74.6,66.5,30.16,West,260,0.0,4.0,76,0.00,,,0.00,Wunderground v.1.15,2013-07-30 15:36:00,
2013-07-30 11:37:00,74.8,68.2,30.16,West,260,0.0,4.0,80,0.00,,,0.00,Wunderground v.1.15,2013-07-30 15:37:00,
2013-07-30 11:39:00,74.9,65.7,30.16,West,260,0.0,4.0,73,0.00,,,0.00,Wunderground v.1.15,2013-07-30 15:39:00,
2013-07-30 11:40:00,75.0,65.8,30.16,West,260,0.0,1.0,73,0.00,,,0.00,Wunderground v.1.15,2013-07-30 15:40:00,
2013-07-30 11:41:00,75.1,67.8,30.16,West,260,2.0,3.0,78,0.00,,,0.00,Wunderground v.1.15,2013-07-30 15:41:00,
2013-07-30 11:42:00,75.2,66.3,30.16,West,260,1.0,3.0,74,0.00,,,0.00,Wunderground v.1.15,2013-07-30 15:42:00,
2013-07-30 11:45:00,75.1,65.5,30.16,West,260,2.0,3.0,72,0.00,,,0.00,Wunderground v.1.15,2013-07-30 15:45:00,
2013-07-30 11:46:00,75.1,65.9,30.16,West,260,0.0,3.0,73,0.00,,,0.00,Wunderground v.1.15,2013-07-30 15:46:00,
2013-07-30 11:47:00,75.1,65.5,30.16,West,260,0.0,3.0,72,0.00,,,0.00,Wunderground v.1.15,2013-07-30 15:47:00,
2013-07-30 11:48:00,75.1,65.5,30.16,West,260,0.0,3.0,72,0.00,,,0.00,Wunderground v.1.15,2013-07-30 15:48:00,
2013-07-30 11:50:00,75.3,66.8,30.16,West,260,2.0,2.0,75,0.00,,,0.00,Wunderground v.1.15,2013-07-30 15:50:00,
2013-07-30 11:52:00,75.3,66.4,30.16,West,260,2.0,3.0,74,0.00,,,0.00,Wunderground v.1.15,2013-07-30 15:52:00,
2013-07-30 11:53:00,75.4,66.5,30.15,West,260,2.0,5.0,74,0.00,,,0.00,Wunderground v.1.15,2013-07-30 15:53:00,
2013-07-30 11:55:00,75.4,66.1,30.15,West,260,1.0,5.0,73,0.00,,,0.00,Wunderground v.1.15,2013-07-30 15:55:00,
2013-07-30 11:58:00,75.6,66.7,30.15,West,260,1.0,5.0,74,0.00,,,0.00,Wunderground v.1.15,2013-07-30 15:58:00,
2013-07-30 12:01:00,75.8,66.5,30.15,West,260,1.0,2.0,73,0.00,,,0.00,Wunderground v.1.15,2013-07-30 16:01:00,
2013-07-30 12:03:00,75.9,67.0,30.15,West,260,1.0,2.0,74,0.00,,,0.00,Wunderground v.1.15,2013-07-30 16:03:00,
2013-07-30 12:04:00,76.0,66.3,30.15,West,260,0.0,2.0,72,0.00,,,0.00,Wunderground v.1.15,2013-07-30 16:04:00,
2013-07-30 12:07:00,76.1,68.0,30.15,West,260,0.0,2.0,76,0.00,,,0.00,Wunderground v.1.15,2013-07-30 16:07:00,
2013-07-30 12:08:00,76.3,67.8,30.15,West,260,0.0,2.0,75,0.00,,,0.00,Wunderground v.1.15,2013-07-30 16:08:00,
2013-07-30 12:10:00,76.4,67.9,30.15,West,260,1.0,2.0,75,0.00,,,0.00,Wunderground v.1.15,2013-07-30 16:10:00,
2013-07-30 12:12:00,76.6,66.9,30.14,West,260,0.0,2.0,72,0.00,,,0.00,Wunderground v.1.15,2013-07-30 16:12:00,
2013-07-30 12:13:00,76.6,66.9,30.15,West,260,0.0,2.0,72,0.00,,,0.00,Wunderground v.1.15,2013-07-30 16:13:00,
2013-07-30 12:14:00,76.7,67.0,30.15,West,260,0.0,2.0,72,0.00,,,0.00,Wunderground v.1.15,2013-07-30 16:14:00,
2013-07-30 12:15:00,76.8,67.9,30.15,West,260,1.0,2.0,74,0.00,,,0.00,Wunderground v.1.15,2013-07-30 16:15:00,
2013-07-30 12:18:00,77.2,69.8,30.15,West,260,0.0,2.0,78,0.00,,,0.00,Wunderground v.1.15,2013-07-30 16:18:00,
2013-07-30 12:19:00,77.4,69.6,30.14,West,260,0.0,2.0,77,0.00,,,0.00,Wunderground v.1.15,2013-07-30 16:19:00,
2013-07-30 12:20:00,77.6,69.0,30.14,West,260,0.0,1.0,75,0.00,,,0.00,Wunderground v.1.15,2013-07-30 16:20:00,
2013-07-30 12:23:00,78.0,67.4,30.14,West,260,1.0,2.0,70,0.00,,,0.00,Wunderground v.1.15,2013-07-30 16:23:00,
2013-07-30 12:24:00,78.2,69.2,30.14,West,260,0.0,2.0,74,0.00,,,0.00,Wunderground v.1.15,2013-07-30 16:24:00,
2013-07-30 12:25:00,78.4,68.6,30.14,West,260,1.0,3.0,72,0.00,,,0.00,Wunderground v.1.15,2013-07-30 16:25:00,
2013-07-30 12:28:00,78.7,67.7,30.14,West,260,1.0,3.0,69,0.00,,,0.00,Wunderground v.1.15,2013-07-30 16:28:00,
2013-07-30 12:29:00,78.7,68.1,30.14,West,260,0.0,3.0,70,0.00,,,0.00,Wunderground v.1.15,2013-07-30 16:29:00,
2013-07-30 12:30:00,78.7,67.7,30.14,West,260,0.0,1.0,69,0.00,,,0.00,Wunderground v.1.15,2013-07-30 16:30:00,
2013-07-30 12:33:00,78.8,68.2,30.14,West,260,0.0,1.0,70,0.00,,,0.00,Wunderground v.1.15,2013-07-30 16:33:00,
2013-07-30 12:34:00,78.8,67.8,30.14,West,260,0.0,1.0,69,0.00,,,0.00,Wunderground v.1.15,2013-07-30 16:34:00,
2013-07-30 12:35:00,78.9,68.3,30.14,West,260,0.0,1.0,70,0.00,,,0.00,Wunderground v.1.15,2013-07-30 16:35:00,
2013-07-30 12:37:00,78.8,67.3,30.14,West,260,0.0,1.0,68,0.00,,,0.00,Wunderground v.1.15,2013-07-30 16:37:00,
2013-07-30 12:38:00,78.9,67.9,30.14,West,260,0.0,1.0,69,0.00,,,0.00,Wunderground v.1.15,2013-07-30 16:38:00,
2013-07-30 12:40:00,79.0,68.8,30.14,West,260,0.0,0.0,71,0.00,,,0.00,Wunderground v.1.15,2013-07-30 16:40:00,
2013-07-30 12:42:00,79.1,68.9,30.14,West,260,0.0,1.0,71,0.00,,,0.00,Wunderground v.1.15,2013-07-30 16:42:00,
2013-07-30 12:44:00,79.3,68.7,30.14,West,260,1.0,1.0,70,0.00,,,0.00,Wunderground v.1.15,2013-07-30 16:44:00,
2013-07-30 12:45:00,79.3,67.8,30.14,West,260,0.0,1.0,68,0.00,,,0.00,Wunderground v.1.15,2013-07-30 16:45:00,
2013-07-30 12:47:00,79.5,68.9,30.14,West,260,2.0,3.0,70,0.00,,,0.00,Wunderground v.1.15,2013-07-30 16:47:00,
2013-07-30 12:49:00,79.4,67.9,30.14,West,260,0.0,3.0,68,0.00,,,0.00,Wunderground v.1.15,2013-07-30 16:49:00,
2013-07-30 12:50:00,79.5,68.9,30.14,West,260,2.0,3.0,70,0.00,,,0.00,Wunderground v.1.15,2013-07-30 16:50:00,
2013-07-30 12:53:00,79.6,68.5,30.14,West,260,2.0,3.0,69,0.00,,,0.00,Wunderground v.1.15,2013-07-30 16:53:00,
2013-07-30 12:54:00,79.7,69.9,30.14,West,260,0.0,3.0,72,0.00,,,0.00,Wunderground v.1.15,2013-07-30 16:54:00,
2013-07-30 12:55:00,79.8,68.7,30.14,West,260,1.0,3.0,69,0.00,,,0.00,Wunderground v.1.15,2013-07-30 16:55:00,
2013-07-30 12:56:00,79.9,68.4,30.14,West,260,0.0,3.0,68,0.00,,,0.00,Wunderground v.1.15,2013-07-30 16:56:00,
2013-07-30 12:58:00,80.0,69.7,30.14,West,260,1.0,3.0,71,0.00,,,0.00,Wunderground v.1.15,2013-07-30 16:58:00,
2013-07-30 12:59:00,80.1,69.8,30.14,West,260,0.0,3.0,71,0.00,,,0.00,Wunderground v.1.15,2013-07-30 16:59:00,
2013-07-30 13:01:00,80.3,71.3,30.13,West,260,1.0,2.0,74,0.00,,,0.00,Wunderground v.1.15,2013-07-30 17:01:00,
2013-07-30 13:03:00,80.2,66.9,30.13,West,260,0.0,3.0,64,0.00,,,0.00,Wunderground v.1.15,2013-07-30 17:03:00,
2013-07-30 13:04:00,80.2,68.2,30.13,West,260,1.0,3.0,67,0.00,,,0.00,Wunderground v.1.15,2013-07-30 17:04:00,
2013-07-30 13:05:00,80.2,68.2,30.13,West,260,0.0,3.0,67,0.00,,,0.00,Wunderground v.1.15,2013-07-30 17:05:00,
2013-07-30 13:06:00,80.1,69.0,30.13,West,260,0.0,3.0,69,0.00,,,0.00,Wunderground v.1.15,2013-07-30 17:06:00,
2013-07-30 13:07:00,80.2,68.7,30.13,West,260,0.0,3.0,68,0.00,,,0.00,Wunderground v.1.15,2013-07-30 17:07:00,
2013-07-30 13:08:00,80.3,69.6,30.13,West,260,1.0,3.0,70,0.00,,,0.00,Wunderground v.1.15,2013-07-30 17:08:00,
2013-07-30 13:10:00,80.4,68.0,30.13,West,260,0.0,2.0,66,0.00,,,0.00,Wunderground v.1.15,2013-07-30 17:10:00,
2013-07-30 13:11:00,80.4,69.3,30.13,West,260,0.0,2.0,69,0.00,,,0.00,Wunderground v.1.15,2013-07-30 17:11:00,
2013-07-30 13:12:00,80.5,67.6,30.13,West,260,2.0,3.0,65,0.00,,,0.00,Wunderground v.1.15,2013-07-30 17:12:00,
2013-07-30 13:13:00,80.5,67.2,30.13,West,260,1.0,3.0,64,0.00,,,0.00,Wunderground v.1.15,2013-07-30 17:13:00,
2013-07-30 13:15:00,80.4,67.6,30.13,West,260,1.0,3.0,65,0.00,,,0.00,Wunderground v.1.15,2013-07-30 17:15:00,
2013-07-30 13:16:00,80.5,68.1,30.13,West,260,1.0,3.0,66,0.00,,,0.00,Wunderground v.1.15,2013-07-30 17:16:00,
2013-07-30 13:18:00,80.6,69.1,30.13,West,260,0.0,3.0,68,0.00,,,0.00,Wunderground v.1.15,2013-07-30 17:18:00,
2013-07-30 13:20:00,80.8,69.2,30.13,West,260,0.0,1.0,68,0.00,,,0.00,Wunderground v.1.15,2013-07-30 17:20:00,
2013-07-30 13:21:00,80.8,68.8,30.13,West,260,0.0,1.0,67,0.00,,,0.00,Wunderground v.1.15,2013-07-30 17:21:00,
2013-07-30 13:23:00,81.1,68.2,30.13,West,260,1.0,1.0,65,0.00,,,0.00,Wunderground v.1.15,2013-07-30 17:23:00,
2013-07-30 13:24:00,81.2,69.2,30.13,West,260,0.0,2.0,67,0.00,,,0.00,Wunderground v.1.15,2013-07-30 17:24:00,
2013-07-30 13:25:00,81.3,69.7,30.13,West,260,0.0,2.0,68,0.00,,,0.00,Wunderground v.1.15,2013-07-30 17:25:00,
2013-07-30 13:26:00,81.4,70.2,30.13,West,260,1.0,2.0,69,0.00,,,0.00,Wunderground v.1.15,2013-07-30 17:26:00,
2013-07-30 13:27:00,81.5,70.3,30.13,West,260,1.0,2.0,69,0.00,,,0.00,Wunderground v.1.15,2013-07-30 17:27:00,
2013-07-30 13:28:00,81.6,69.6,30.13,West,260,0.0,2.0,67,0.00,,,0.00,Wunderground v.1.15,2013-07-30 17:28:00,
2013-07-30 13:29:00,81.6,70.0,30.13,West,260,0.0,2.0,68,0.00,,,0.00,Wunderground v.1.15,2013-07-30 17:29:00,
2013-07-30 13:31:00,81.6,69.6,30.13,West,260,1.0,2.0,67,0.00,,,0.00,Wunderground v.1.15,2013-07-30 17:31:00,
2013-07-30 13:32:00,81.6,68.7,30.13,West,260,0.0,2.0,65,0.00,,,0.00,Wunderground v.1.15,2013-07-30 17:32:00,
2013-07-30 13:34:00,81.6,67.3,30.13,West,260,1.0,4.0,62,0.00,,,0.00,Wunderground v.1.15,2013-07-30 17:34:00,
2013-07-30 13:35:00,81.6,67.3,30.13,West,260,0.0,4.0,62,0.00,,,0.00,Wunderground v.1.15,2013-07-30 17:35:00,
2013-07-30 13:36:00,81.6,68.2,30.13,West,260,1.0,4.0,64,0.00,,,0.00,Wunderground v.1.15,2013-07-30 17:36:00,
2013-07-30 13:37:00,81.6,67.8,30.13,West,260,0.0,4.0,63,0.00,,,0.00,Wunderground v.1.15,2013-07-30 17:37:00,
2013-07-30 13:38:00,81.6,67.8,30.13,West,260,1.0,4.0,63,0.00,,,0.00,Wunderground v.1.15,2013-07-30 17:38:00,
2013-07-30 13:40:00,81.7,68.3,30.13,West,260,0.0,1.0,64,0.00,,,0.00,Wunderground v.1.15,2013-07-30 17:40:00,
2013-07-30 13:41:00,81.8,68.4,30.13,West,260,1.0,2.0,64,0.00,,,0.00,Wunderground v.1.15,2013-07-30 17:41:00,
2013-07-30 13:42:00,81.9,69.4,30.13,West,260,3.0,3.0,66,0.00,,,0.00,Wunderground v.1.15,2013-07-30 17:42:00,
2013-07-30 13:43:00,81.9,69.4,30.13,West,260,4.0,4.0,66,0.00,,,0.00,Wunderground v.1.15,2013-07-30 17:43:00,
2013-07-30 13:46:00,82.0,68.2,30.12,West,260,0.0,4.0,63,0.00,,,0.00,Wunderground v.1.15,2013-07-30 17:46:00,
2013-07-30 13:48:00,82.1,69.2,30.12,West,260,0.0,4.0,65,0.00,,,0.00,Wunderground v.1.15,2013-07-30 17:48:00,
2013-07-30 13:51:00,82.2,67.4,30.13,West,260,2.0,4.0,61,0.00,,,0.00,Wunderground v.1.15,2013-07-30 17:51:00,
2013-07-30 13:52:00,82.2,68.3,30.13,West,260,1.0,4.0,63,0.00,,,0.00,Wunderground v.1.15,2013-07-30 17:52:00,
2013-07-30 13:53:00,82.2,67.9,30.13,West,260,1.0,4.0,62,0.00,,,0.00,Wunderground v.1.15,2013-07-30 17:53:00,
2013-07-30 13:54:00,82.2,67.9,30.13,West,260,2.0,4.0,62,0.00,,,0.00,Wunderground v.1.15,2013-07-30 17:54:00,
2013-07-30 13:56:00,82.3,71.5,30.12,West,260,1.0,4.0,70,0.00,,,0.00,Wunderground v.1.15,2013-07-30 17:56:00,
2013-07-30 13:58:00,82.4,69.0,30.12,West,260,0.0,4.0,64,0.00,,,0.00,Wunderground v.1.15,2013-07-30 17:58:00,
2013-07-30 13:59:00,82.5,69.1,30.12,West,260,0.0,4.0,64,0.00,,,0.00,Wunderground v.1.15,2013-07-30 17:59:00,
2013-07-30 14:01:00,82.6,68.7,30.12,West,260,0.0,1.0,63,0.00,,,0.00,Wunderground v.1.15,2013-07-30 18:01:00,
2013-07-30 14:03:00,82.8,71.6,30.12,West,260,1.0,1.0,69,0.00,,,0.00,Wunderground v.1.15,2013-07-30 18:03:00,
2013-07-30 14:04:00,82.8,71.6,30.12,West,260,2.0,2.0,69,0.00,,,0.00,Wunderground v.1.15,2013-07-30 18:04:00,
2013-07-30 14:07:00,83.2,70.7,30.12,West,260,0.0,2.0,66,0.00,,,0.00,Wunderground v.1.15,2013-07-30 18:07:00,
2013-07-30 14:08:00,83.2,70.7,30.12,West,260,1.0,2.0,66,0.00,,,0.00,Wunderground v.1.15,2013-07-30 18:08:00,
2013-07-30 14:09:00,83.2,67.9,30.12,West,260,0.0,2.0,60,0.00,,,0.00,Wunderground v.1.15,2013-07-30 18:09:00,
2013-07-30 14:10:00,83.3,68.0,30.11,West,260,2.0,3.0,60,0.00,,,0.00,Wunderground v.1.15,2013-07-30 18:10:00,
2013-07-30 14:12:00,83.4,69.5,30.12,West,260,1.0,3.0,63,0.00,,,0.00,Wunderground v.1.15,2013-07-30 18:12:00,
2013-07-30 14:13:00,83.5,69.6,30.12,West,260,2.0,3.0,63,0.00,,,0.00,Wunderground v.1.15,2013-07-30 18:13:00,
2013-07-30 14:14:00,83.5,69.6,30.12,West,260,2.0,3.0,63,0.00,,,0.00,Wunderground v.1.15,2013-07-30 18:14:00,
2013-07-30 14:15:00,83.5,68.6,30.11,West,260,1.0,3.0,61,0.00,,,0.00,Wunderground v.1.15,2013-07-30 18:15:00,
2013-07-30 14:19:00,83.5,68.6,30.11,West,260,1.0,3.0,61,0.00,,,0.00,Wunderground v.1.15,2013-07-30 18:19:00,
2013-07-30 14:20:00,83.6,69.2,30.12,West,260,2.0,2.0,62,0.00,,,0.00,Wunderground v.1.15,2013-07-30 18:20:00,
2013-07-30 14:24:00,83.6,67.3,30.12,West,260,2.0,3.0,58,0.00,,,0.00,Wunderground v.1.15,2013-07-30 18:24:00,
2013-07-30 14:25:00,83.6,66.8,30.11,West,260,0.0,3.0,57,0.00,,,0.00,Wunderground v.1.15,2013-07-30 18:25:00,
2013-07-30 14:29:00,83.9,70.9,30.11,West,260,1.0,3.0,65,0.00,,,0.00,Wunderground v.1.15,2013-07-30 18:29:00,
2013-07-30 14:30:00,83.8,69.4,30.11,West,260,1.0,1.0,62,0.00,,,0.00,Wunderground v.1.15,2013-07-30 18:30:00,
2013-07-30 14:31:00,83.8,68.4,30.11,West,260,0.0,1.0,60,0.00,,,0.00,Wunderground v.1.15,2013-07-30 18:31:00,
2013-07-30 14:34:00,83.9,70.4,30.11,West,260,0.0,1.0,64,0.00,,,0.00,Wunderground v.1.15,2013-07-30 18:34:00,
2013-07-30 14:35:00,83.9,70.9,30.11,West,260,1.0,1.0,65,0.00,,,0.00,Wunderground v.1.15,2013-07-30 18:35:00,
2013-07-30 14:37:00,83.9,69.0,30.11,West,260,2.0,2.0,61,0.00,,,0.00,Wunderground v.1.15,2013-07-30 18:37:00,
2013-07-30 14:40:00,83.7,67.4,30.11,West,260,1.0,1.0,58,0.00,,,0.00,Wunderground v.1.15,2013-07-30 18:40:00,
2013-07-30 14:42:00,83.7,68.8,30.11,West,260,0.0,1.0,61,0.00,,,0.00,Wunderground v.1.15,2013-07-30 18:42:00,
2013-07-30 14:45:00,83.8,69.9,30.11,West,260,0.0,2.0,63,0.00,,,0.00,Wunderground v.1.15,2013-07-30 18:45:00,
2013-07-30 14:47:00,83.8,67.4,30.11,West,260,0.0,2.0,58,0.00,,,0.00,Wunderground v.1.15,2013-07-30 18:47:00,
2013-07-30 14:50:00,83.8,68.4,30.11,West,260,1.0,2.0,60,0.00,,,0.00,Wunderground v.1.15,2013-07-30 18:50:00,
2013-07-30 14:52:00,83.8,66.4,30.11,West,260,1.0,2.0,56,0.00,,,0.00,Wunderground v.1.15,2013-07-30 18:52:00,
2013-07-30 14:53:00,83.8,66.4,30.11,West,260,0.0,2.0,56,0.00,,,0.00,Wunderground v.1.15,2013-07-30 18:53:00,
2013-07-30 14:55:00,83.8,67.4,30.11,West,260,1.0,2.0,58,0.00,,,0.00,Wunderground v.1.15,2013-07-30 18:55:00,
2013-07-30 14:57:00,83.9,67.0,30.11,West,260,0.0,2.0,57,0.00,,,0.00,Wunderground v.1.15,2013-07-30 18:57:00,
2013-07-30 14:58:00,84.0,68.1,30.11,West,260,0.0,2.0,59,0.00,,,0.00,Wunderground v.1.15,2013-07-30 18:58:00,
2013-07-30 15:00:00,84.2,69.8,30.10,West,260,0.0,1.0,62,0.00,,,0.00,Wunderground v.1.15,2013-07-30 19:00:00,
2013-07-30 15:03:00,84.4,69.0,30.10,West,260,0.0,1.0,60,0.00,,,0.00,Wunderground v.1.15,2013-07-30 19:03:00,
2013-07-30 15:06:00,84.6,70.1,30.10,West,260,0.0,1.0,62,0.00,,,0.00,Wunderground v.1.15,2013-07-30 19:06:00,
2013-07-30 15:08:00,84.8,69.4,30.10,West,260,0.0,1.0,60,0.00,,,0.00,Wunderground v.1.15,2013-07-30 19:08:00,
2013-07-30 15:09:00,84.9,69.5,30.10,West,260,1.0,1.0,60,0.00,,,0.00,Wunderground v.1.15,2013-07-30 19:09:00,
2013-07-30 15:11:00,85.2,72.1,30.10,West,260,2.0,2.0,65,0.00,,,0.00,Wunderground v.1.15,2013-07-30 19:11:00,
2013-07-30 15:13:00,85.4,70.4,30.10,West,260,0.0,2.0,61,0.00,,,0.00,Wunderground v.1.15,2013-07-30 19:13:00,
2013-07-30 15:14:00,85.4,70.4,30.10,West,260,0.0,2.0,61,0.00,,,0.00,Wunderground v.1.15,2013-07-30 19:14:00,
2013-07-30 15:16:00,85.5,71.0,30.10,West,260,0.0,2.0,62,0.00,,,0.00,Wunderground v.1.15,2013-07-30 19:16:00,
2013-07-30 15:19:00,85.5,69.5,30.10,West,260,1.0,2.0,59,0.00,,,0.00,Wunderground v.1.15,2013-07-30 19:19:00,
2013-07-30 15:20:00,85.4,68.9,30.10,West,260,3.0,3.0,58,0.00,,,0.00,Wunderground v.1.15,2013-07-30 19:20:00,
2013-07-30 15:22:00,85.2,69.7,30.10,West,260,1.0,3.0,60,0.00,,,0.00,Wunderground v.1.15,2013-07-30 19:22:00,
2013-07-30 15:24:00,85.2,70.2,30.10,West,260,0.0,3.0,61,0.00,,,0.00,Wunderground v.1.15,2013-07-30 19:24:00,
2013-07-30 15:25:00,85.2,71.2,30.10,West,260,0.0,3.0,63,0.00,,,0.00,Wunderground v.1.15,2013-07-30 19:25:00,
2013-07-30 15:28:00,85.4,69.4,30.09,West,260,0.0,3.0,59,0.00,,,0.00,Wunderground v.1.15,2013-07-30 19:28:00,
2013-07-30 15:29:00,85.4,69.4,30.09,West,260,2.0,3.0,59,0.00,,,0.00,Wunderground v.1.15,2013-07-30 19:29:00,
2013-07-30 15:30:00,85.4,71.4,30.09,West,260,0.0,1.0,63,0.00,,,0.00,Wunderground v.1.15,2013-07-30 19:30:00,
2013-07-30 15:31:00,85.4,69.9,30.09,West,260,0.0,1.0,60,0.00,,,0.00,Wunderground v.1.15,2013-07-30 19:31:00,
2013-07-30 15:33:00,85.6,69.6,30.09,West,260,0.0,1.0,59,0.00,,,0.00,Wunderground v.1.15,2013-07-30 19:33:00,
2013-07-30 15:34:00,85.6,69.6,30.09,West,260,1.0,3.0,59,0.00,,,0.00,Wunderground v.1.15,2013-07-30 19:34:00,
2013-07-30 15:35:00,85.7,69.7,30.09,West,260,1.0,3.0,59,0.00,,,0.00,Wunderground v.1.15,2013-07-30 19:35:00,
2013-07-30 15:36:00,85.7,72.1,30.09,West,260,0.0,3.0,64,0.00,,,0.00,Wunderground v.1.15,2013-07-30 19:36:00,
2013-07-30 15:38:00,85.9,70.9,30.09,West,260,1.0,4.0,61,0.00,,,0.00,Wunderground v.1.15,2013-07-30 19:38:00,
2013-07-30 15:39:00,85.9,71.4,30.09,West,261,1.0,4.0,62,0.00,,,0.00,Wunderground v.1.15,2013-07-30 19:39:00,
2013-07-30 15:40:00,86.0,71.5,30.09,West,260,0.0,2.0,62,0.00,,,0.00,Wunderground v.1.15,2013-07-30 19:40:00,
2013-07-30 15:43:00,86.2,72.1,30.09,West,261,0.0,2.0,63,0.00,,,0.00,Wunderground v.1.15,2013-07-30 19:43:00,
2013-07-30 15:44:00,86.3,72.2,30.09,West,261,0.0,2.0,63,0.00,,,0.00,Wunderground v.1.15,2013-07-30 19:44:00,
2013-07-30 15:45:00,86.4,72.3,30.09,West,261,0.0,2.0,63,0.00,,,0.00,Wunderground v.1.15,2013-07-30 19:45:00,
2013-07-30 15:48:00,86.5,71.5,30.09,West,261,2.0,3.0,61,0.00,,,0.00,Wunderground v.1.15,2013-07-30 19:48:00,
2013-07-30 15:49:00,86.5,71.9,30.09,West,261,2.0,3.0,62,0.00,,,0.00,Wunderground v.1.15,2013-07-30 19:49:00,
2013-07-30 15:50:00,86.6,73.0,30.09,West,260,0.0,1.0,64,0.00,,,0.00,Wunderground v.1.15,2013-07-30 19:50:00,
2013-07-30 15:51:00,86.6,73.0,30.09,West,261,0.0,1.0,64,0.00,,,0.00,Wunderground v.1.15,2013-07-30 19:51:00,
2013-07-30 15:53:00,86.7,74.4,30.09,West,261,1.0,1.0,67,0.00,,,0.00,Wunderground v.1.15,2013-07-30 19:53:00,
2013-07-30 15:54:00,86.7,74.4,30.09,West,260,1.0,1.0,67,0.00,,,0.00,Wunderground v.1.15,2013-07-30 19:54:00,
2013-07-30 15:55:00,86.7,72.6,30.09,West,261,0.0,2.0,63,0.00,,,0.00,Wunderground v.1.15,2013-07-30 19:55:00,
2013-07-30 15:56:00,86.7,72.6,30.09,West,261,0.0,2.0,63,0.00,,,0.00,Wunderground v.1.15,2013-07-30 19:56:00,
2013-07-30 15:57:00,86.7,73.5,30.08,West,261,1.0,2.0,65,0.00,,,0.00,Wunderground v.1.15,2013-07-30 19:57:00,
2013-07-30 15:58:00,86.7,72.6,30.09,West,261,0.0,2.0,63,0.00,,,0.00,Wunderground v.1.15,2013-07-30 19:58:00,
2013-07-30 15:59:00,86.6,73.0,30.09,West,261,0.0,2.0,64,0.00,,,0.00,Wunderground v.1.15,2013-07-30 19:59:00,
2013-07-30 16:00:00,86.6,73.0,30.09,West,260,0.0,1.0,64,0.00,,,0.00,Wunderground v.1.15,2013-07-30 20:00:00,
2013-07-30 16:01:00,86.6,73.0,30.09,West,261,0.0,1.0,64,0.00,,,0.00,Wunderground v.1.15,2013-07-30 20:01:00,
2013-07-30 16:02:00,86.5,72.9,30.09,West,261,0.0,2.0,64,0.00,,,0.00,Wunderground v.1.15,2013-07-30 20:02:00,
2013-07-30 16:03:00,86.4,73.2,30.09,West,261,1.0,2.0,65,0.00,,,0.00,Wunderground v.1.15,2013-07-30 20:03:00,
2013-07-30 16:04:00,86.4,71.8,30.09,West,261,1.0,2.0,62,0.00,,,0.00,Wunderground v.1.15,2013-07-30 20:04:00,
2013-07-30 16:07:00,86.1,72.5,30.09,West,261,0.0,2.0,64,0.00,,,0.00,Wunderground v.1.15,2013-07-30 20:07:00,
2013-07-30 16:08:00,86.1,73.0,30.08,West,261,0.0,2.0,65,0.00,,,0.00,Wunderground v.1.15,2013-07-30 20:08:00,
2013-07-30 16:09:00,86.0,72.9,30.08,West,261,0.0,2.0,65,0.00,,,0.00,Wunderground v.1.15,2013-07-30 20:09:00,
2013-07-30 16:12:00,86.0,73.3,30.08,West,261,1.0,1.0,66,0.00,,,0.00,Wunderground v.1.15,2013-07-30 20:12:00,
2013-07-30 16:13:00,86.0,73.3,30.08,West,261,2.0,2.0,66,0.00,,,0.00,Wunderground v.1.15,2013-07-30 20:13:00,
2013-07-30 16:14:00,85.9,71.4,30.08,West,260,0.0,2.0,62,0.00,,,0.00,Wunderground v.1.15,2013-07-30 20:14:00,
2013-07-30 16:15:00,85.9,73.7,30.08,West,261,0.0,2.0,67,0.00,,,0.00,Wunderground v.1.15,2013-07-30 20:15:00,
2013-07-30 16:17:00,86.0,74.2,30.08,West,261,2.0,2.0,68,0.00,,,0.00,Wunderground v.1.15,2013-07-30 20:17:00,
2013-07-30 16:18:00,86.0,74.2,30.08,West,260,1.0,2.0,68,0.00,,,0.00,Wunderground v.1.15,2013-07-30 20:18:00,
2013-07-30 16:19:00,85.9,73.7,30.08,West,267,2.0,4.0,67,0.00,,,0.00,Wunderground v.1.15,2013-07-30 20:19:00,
2013-07-30 16:20:00,85.9,73.2,30.08,West,267,0.0,1.0,66,0.00,,,0.00,Wunderground v.1.15,2013-07-30 20:20:00,
2013-07-30 16:23:00,85.8,74.4,30.08,West,267,0.0,2.0,69,0.00,,,0.00,Wunderground v.1.15,2013-07-30 20:23:00,
2013-07-30 16:24:00,85.9,74.5,30.08,West,267,1.0,2.0,69,0.00,,,0.00,Wunderground v.1.15,2013-07-30 20:24:00,
2013-07-30 16:25:00,86.0,74.2,30.08,West,267,0.0,3.0,68,0.00,,,0.00,Wunderground v.1.15,2013-07-30 20:25:00,
2013-07-30 16:28:00,86.2,74.4,30.08,West,267,2.0,3.0,68,0.00,,,0.00,Wunderground v.1.15,2013-07-30 20:28:00,
2013-07-30 16:29:00,86.2,73.0,30.08,West,267,0.0,3.0,65,0.00,,,0.00,Wunderground v.1.15,2013-07-30 20:29:00,
2013-07-30 16:32:00,86.4,74.1,30.08,West,267,2.0,4.0,67,0.00,,,0.00,Wunderground v.1.15,2013-07-30 20:32:00,
2013-07-30 16:33:00,86.3,71.7,30.08,West,267,1.0,4.0,62,0.00,,,0.00,Wunderground v.1.15,2013-07-30 20:33:00,
2013-07-30 16:34:00,86.3,72.7,30.08,West,267,0.0,4.0,64,0.00,,,0.00,Wunderground v.1.15,2013-07-30 20:34:00,
2013-07-30 16:35:00,86.3,74.5,30.08,West,267,0.0,4.0,68,0.00,,,0.00,Wunderground v.1.15,2013-07-30 20:35:00,
2013-07-30 16:37:00,86.4,74.1,30.08,West,267,1.0,4.0,67,0.00,,,0.00,Wunderground v.1.15,2013-07-30 20:37:00,
2013-07-30 16:38:00,86.4,71.8,30.08,West,267,3.0,4.0,62,0.00,,,0.00,Wunderground v.1.15,2013-07-30 20:38:00,
2013-07-30 16:39:00,86.4,70.9,30.08,West,267,5.0,5.0,60,0.00,,,0.00,Wunderground v.1.15,2013-07-30 20:39:00,
2013-07-30 16:40:00,86.4,72.3,30.08,West,267,0.0,1.0,63,0.00,,,0.00,Wunderground v.1.15,2013-07-30 20:40:00,
2013-07-30 16:42:00,86.5,73.3,30.08,West,267,0.0,2.0,65,0.00,,,0.00,Wunderground v.1.15,2013-07-30 20:42:00,
2013-07-30 16:44:00,86.5,72.4,30.08,West,268,3.0,4.0,63,0.00,,,0.00,Wunderground v.1.15,2013-07-30 20:44:00,
2013-07-30 16:45:00,86.5,70.5,30.08,West,268,0.0,4.0,59,0.00,,,0.00,Wunderground v.1.15,2013-07-30 20:45:00,
2013-07-30 16:49:00,86.5,72.4,30.08,West,268,0.0,4.0,63,0.00,,,0.00,Wunderground v.1.15,2013-07-30 20:49:00,
2013-07-30 16:50:00,86.4,72.3,30.08,West,268,1.0,1.0,63,0.00,,,0.00,Wunderground v.1.15,2013-07-30 20:50:00,
2013-07-30 16:54:00,86.2,72.1,30.08,West,268,0.0,3.0,63,0.00,,,0.00,Wunderground v.1.15,2013-07-30 20:54:00,
2013-07-30 16:55:00,86.1,73.4,30.08,West,268,0.0,3.0,66,0.00,,,0.00,Wunderground v.1.15,2013-07-30 20:55:00,
2013-07-30 16:59:00,85.8,72.2,30.08,West,268,0.0,3.0,64,0.00,,,0.00,Wunderground v.1.15,2013-07-30 20:59:00,
2013-07-30 17:00:00,85.7,72.6,30.08,West,268,0.0,1.0,65,0.00,,,0.00,Wunderground v.1.15,2013-07-30 21:00:00,
2013-07-30 17:04:00,85.4,72.7,30.07,West,268,0.0,4.0,66,0.00,,,0.00,Wunderground v.1.15,2013-07-30 21:04:00,
2013-07-30 17:05:00,85.3,70.3,30.07,West,268,0.0,4.0,61,0.00,,,0.00,Wunderground v.1.15,2013-07-30 21:05:00,
2013-07-30 17:09:00,84.7,72.1,30.08,West,268,0.0,4.0,66,0.00,,,0.00,Wunderground v.1.15,2013-07-30 21:09:00,
2013-07-30 17:10:00,84.7,71.6,30.08,West,268,1.0,1.0,65,0.00,,,0.00,Wunderground v.1.15,2013-07-30 21:10:00,
2013-07-30 17:14:00,84.2,71.6,30.07,West,268,0.0,2.0,66,0.00,,,0.00,Wunderground v.1.15,2013-07-30 21:14:00,
2013-07-30 17:15:00,84.1,71.5,30.07,West,268,0.0,2.0,66,0.00,,,0.00,Wunderground v.1.15,2013-07-30 21:15:00,
2013-07-30 17:17:00,84.0,71.0,30.07,West,268,0.0,2.0,65,0.00,,,0.00,Wunderground v.1.15,2013-07-30 21:17:00,
2013-07-30 17:20:00,83.8,72.1,30.07,West,268,0.0,0.0,68,0.00,,,0.00,Wunderground v.1.15,2013-07-30 21:20:00,
2013-07-30 17:21:00,83.8,71.7,30.07,West,268,0.0,0.0,67,0.00,,,0.00,Wunderground v.1.15,2013-07-30 21:21:00,
2013-07-30 17:22:00,83.7,72.9,30.07,West,268,0.0,0.0,70,0.00,,,0.00,Wunderground v.1.15,2013-07-30 21:22:00,
2013-07-30 17:25:00,83.6,73.2,30.07,West,268,0.0,0.0,71,0.00,,,0.00,Wunderground v.1.15,2013-07-30 21:25:00,
2013-07-30 17:26:00,83.6,73.2,30.07,West,268,0.0,0.0,71,0.00,,,0.00,Wunderground v.1.15,2013-07-30 21:26:00,
2013-07-30 17:27:00,83.6,72.3,30.07,West,268,0.0,1.0,69,0.00,,,0.00,Wunderground v.1.15,2013-07-30 21:27:00,
2013-07-30 17:30:00,83.6,72.3,30.07,West,268,0.0,0.0,69,0.00,,,0.00,Wunderground v.1.15,2013-07-30 21:30:00,
2013-07-30 17:31:00,83.6,72.8,30.07,West,268,0.0,0.0,70,0.00,,,0.00,Wunderground v.1.15,2013-07-30 21:31:00,
2013-07-30 17:32:00,83.6,71.9,30.07,West,268,0.0,0.0,68,0.00,,,0.00,Wunderground v.1.15,2013-07-30 21:32:00,
2013-07-30 17:33:00,83.6,71.9,30.07,West,268,0.0,0.0,68,0.00,,,0.00,Wunderground v.1.15,2013-07-30 21:33:00,
2013-07-30 17:35:00,83.6,72.3,30.07,West,268,0.0,1.0,69,0.00,,,0.00,Wunderground v.1.15,2013-07-30 21:35:00,
2013-07-30 17:36:00,83.6,73.2,30.07,West,268,0.0,1.0,71,0.00,,,0.00,Wunderground v.1.15,2013-07-30 21:36:00,
2013-07-30 17:37:00,83.6,71.9,30.07,West,268,0.0,1.0,68,0.00,,,0.00,Wunderground v.1.15,2013-07-30 21:37:00,
2013-07-30 17:38:00,83.6,73.2,30.07,West,268,0.0,1.0,71,0.00,,,0.00,Wunderground v.1.15,2013-07-30 21:38:00,
2013-07-30 17:40:00,83.4,72.2,30.07,West,268,1.0,1.0,69,0.00,,,0.00,Wunderground v.1.15,2013-07-30 21:40:00,
2013-07-30 17:41:00,83.4,71.7,30.07,West,268,0.0,1.0,68,0.00,,,0.00,Wunderground v.1.15,2013-07-30 21:41:00,
2013-07-30 17:43:00,83.3,71.2,30.07,West,268,0.0,1.0,67,0.00,,,0.00,Wunderground v.1.15,2013-07-30 21:43:00,
2013-07-30 17:44:00,83.2,72.0,30.06,West,268,0.0,1.0,69,0.00,,,0.00,Wunderground v.1.15,2013-07-30 21:44:00,
2013-07-30 17:45:00,83.2,71.5,30.06,West,268,0.0,1.0,68,0.00,,,0.00,Wunderground v.1.15,2013-07-30 21:45:00,
2013-07-30 17:47:00,83.1,71.0,30.07,West,268,0.0,1.0,67,0.00,,,0.00,Wunderground v.1.15,2013-07-30 21:47:00,
2013-07-30 17:48:00,83.0,70.9,30.07,West,268,0.0,1.0,67,0.00,,,0.00,Wunderground v.1.15,2013-07-30 21:48:00,
2013-07-30 17:49:00,82.9,71.7,30.07,West,268,0.0,1.0,69,0.00,,,0.00,Wunderground v.1.15,2013-07-30 21:49:00,
2013-07-30 17:50:00,82.9,71.7,30.07,West,268,0.0,0.0,69,0.00,,,0.00,Wunderground v.1.15,2013-07-30 21:50:00,
2013-07-30 17:51:00,82.8,71.6,30.07,West,268,0.0,0.0,69,0.00,,,0.00,Wunderground v.1.15,2013-07-30 21:51:00,
2013-07-30 17:52:00,82.7,71.9,30.06,West,268,0.0,0.0,70,0.00,,,0.00,Wunderground v.1.15,2013-07-30 21:52:00,
2013-07-30 17:54:00,82.5,71.7,30.06,West,268,0.0,0.0,70,0.00,,,0.00,Wunderground v.1.15,2013-07-30 21:54:00,
2013-07-30 17:55:00,82.5,72.1,30.06,West,268,0.0,0.0,71,0.00,,,0.00,Wunderground v.1.15,2013-07-30 21:55:00,
2013-07-30 17:56:00,82.5,74.2,30.06,West,268,0.0,0.0,76,0.00,,,0.00,Wunderground v.1.15,2013-07-30 21:56:00,
2013-07-30 17:57:00,82.5,74.2,30.06,West,268,0.0,0.0,76,0.00,,,0.00,Wunderground v.1.15,2013-07-30 21:57:00,
2013-07-30 17:59:00,82.5,73.8,30.06,West,268,0.0,0.0,75,0.00,,,0.00,Wunderground v.1.15,2013-07-30 21:59:00,
2013-07-30 18:00:00,82.5,73.4,30.06,West,268,0.0,0.0,74,0.00,,,0.00,Wunderground v.1.15,2013-07-30 22:00:00,
2013-07-30 18:02:00,82.6,73.9,30.06,West,268,0.0,0.0,75,0.00,,,0.00,Wunderground v.1.15,2013-07-30 22:02:00,
2013-07-30 18:03:00,82.6,73.5,30.06,West,268,0.0,0.0,74,0.00,,,0.00,Wunderground v.1.15,2013-07-30 22:03:00,
2013-07-30 18:04:00,82.6,73.9,30.06,West,268,0.0,0.0,75,0.00,,,0.00,Wunderground v.1.15,2013-07-30 22:04:00,
2013-07-30 18:05:00,82.6,73.9,30.06,West,268,0.0,0.0,75,0.00,,,0.00,Wunderground v.1.15,2013-07-30 22:05:00,
2013-07-30 18:06:00,82.6,73.5,30.06,West,268,0.0,0.0,74,0.00,,,0.00,Wunderground v.1.15,2013-07-30 22:06:00,
2013-07-30 18:07:00,82.7,74.0,30.06,West,268,0.0,0.0,75,0.00,,,0.00,Wunderground v.1.15,2013-07-30 22:07:00,
2013-07-30 18:08:00,82.7,74.8,30.06,West,268,0.0,0.0,77,0.00,,,0.00,Wunderground v.1.15,2013-07-30 22:08:00,
2013-07-30 18:10:00,82.7,74.4,30.06,West,268,0.0,0.0,76,0.00,,,0.00,Wunderground v.1.15,2013-07-30 22:10:00,
2013-07-30 18:11:00,82.7,74.0,30.06,West,268,0.0,0.0,75,0.00,,,0.00,Wunderground v.1.15,2013-07-30 22:11:00,
2013-07-30 18:12:00,82.7,74.4,30.06,West,268,0.0,0.0,76,0.00,,,0.00,Wunderground v.1.15,2013-07-30 22:12:00,
2013-07-30 18:13:00,82.7,73.6,30.06,West,268,0.0,0.0,74,0.00,,,0.00,Wunderground v.1.15,2013-07-30 22:13:00,
2013-07-30 18:15:00,82.6,73.5,30.07,West,268,0.0,0.0,74,0.00,,,0.00,Wunderground v.1.15,2013-07-30 22:15:00,
2013-07-30 18:17:00,82.5,73.8,30.07,West,268,0.0,1.0,75,0.00,,,0.00,Wunderground v.1.15,2013-07-30 22:17:00,
2013-07-30 18:18:00,82.4,72.9,30.07,West,268,0.0,1.0,73,0.00,,,0.00,Wunderground v.1.15,2013-07-30 22:18:00,
2013-07-30 18:20:00,82.3,74.0,30.07,West,268,0.0,0.0,76,0.00,,,0.00,Wunderground v.1.15,2013-07-30 22:20:00,
2013-07-30 18:22:00,82.2,73.5,30.07,West,268,0.0,0.0,75,0.00,,,0.00,Wunderground v.1.15,2013-07-30 22:22:00,
2013-07-30 18:23:00,82.2,73.1,30.07,West,268,0.0,0.0,74,0.00,,,0.00,Wunderground v.1.15,2013-07-30 22:23:00,
2013-07-30 18:24:00,82.2,73.1,30.07,West,268,0.0,0.0,74,0.00,,,0.00,Wunderground v.1.15,2013-07-30 22:24:00,
2013-07-30 18:26:00,82.1,73.8,30.07,West,268,0.0,0.0,76,0.00,,,0.00,Wunderground v.1.15,2013-07-30 22:26:00,
2013-07-30 18:28:00,82.1,74.2,30.07,West,268,0.0,0.0,77,0.00,,,0.00,Wunderground v.1.15,2013-07-30 22:28:00,
2013-07-30 18:29:00,82.1,73.4,30.06,West,268,0.0,0.0,75,0.00,,,0.00,Wunderground v.1.15,2013-07-30 22:29:00,
2013-07-30 18:32:00,82.1,73.4,30.07,West,268,0.0,0.0,75,0.00,,,0.00,Wunderground v.1.15,2013-07-30 22:32:00,
2013-07-30 18:33:00,82.1,73.4,30.06,West,268,0.0,0.0,75,0.00,,,0.00,Wunderground v.1.15,2013-07-30 22:33:00,
2013-07-30 18:35:00,82.2,73.9,30.07,West,268,0.0,0.0,76,0.00,,,0.00,Wunderground v.1.15,2013-07-30 22:35:00,
2013-07-30 18:37:00,82.2,72.7,30.07,West,268,0.0,1.0,73,0.00,,,0.00,Wunderground v.1.15,2013-07-30 22:37:00,
2013-07-30 18:38:00,82.2,72.3,30.07,West,268,0.0,1.0,72,0.00,,,0.00,Wunderground v.1.15,2013-07-30 22:38:00,
2013-07-30 18:39:00,82.2,73.9,30.07,West,268,0.0,1.0,76,0.00,,,0.00,Wunderground v.1.15,2013-07-30 22:39:00,
2013-07-30 18:40:00,82.2,72.7,30.07,West,268,0.0,0.0,73,0.00,,,0.00,Wunderground v.1.15,2013-07-30 22:40:00,
2013-07-30 18:42:00,82.1,73.4,30.06,West,268,0.0,1.0,75,0.00,,,0.00,Wunderground v.1.15,2013-07-30 22:42:00,
2013-07-30 18:43:00,82.1,73.0,30.06,West,268,0.0,1.0,74,0.00,,,0.00,Wunderground v.1.15,2013-07-30 22:43:00,
2013-07-30 18:44:00,82.0,72.9,30.06,West,268,0.0,1.0,74,0.00,,,0.00,Wunderground v.1.15,2013-07-30 22:44:00,
2013-07-30 18:45:00,82.0,73.3,30.06,West,268,0.0,1.0,75,0.00,,,0.00,Wunderground v.1.15,2013-07-30 22:45:00,
2013-07-30 18:48:00,81.8,73.5,30.07,West,268,0.0,1.0,76,0.00,,,0.00,Wunderground v.1.15,2013-07-30 22:48:00,
2013-07-30 18:49:00,81.6,73.3,30.06,West,268,0.0,1.0,76,0.00,,,0.00,Wunderground v.1.15,2013-07-30 22:49:00,
2013-07-30 18:50:00,81.6,73.7,30.06,West,268,0.0,0.0,77,0.00,,,0.00,Wunderground v.1.15,2013-07-30 22:50:00,
2013-07-30 18:53:00,81.4,72.7,30.06,West,268,0.0,2.0,75,0.00,,,0.00,Wunderground v.1.15,2013-07-30 22:53:00,
2013-07-30 18:54:00,81.3,73.0,30.06,West,268,2.0,3.0,76,0.00,,,0.00,Wunderground v.1.15,2013-07-30 22:54:00,
2013-07-30 18:55:00,81.2,72.5,30.06,West,268,0.0,3.0,75,0.00,,,0.00,Wunderground v.1.15,2013-07-30 22:55:00,
2013-07-30 18:58:00,80.9,72.2,30.06,West,268,1.0,3.0,75,0.00,,,0.00,Wunderground v.1.15,2013-07-30 22:58:00,
2013-07-30 18:59:00,80.8,71.3,30.06,West,268,0.0,3.0,73,0.00,,,0.00,Wunderground v.1.15,2013-07-30 22:59:00,
2013-07-30 19:00:00,80.7,72.4,30.06,West,268,0.0,0.0,76,0.00,,,0.00,Wunderground v.1.15,2013-07-30 23:00:00,
2013-07-30 19:03:00,80.5,71.8,30.06,West,268,0.0,2.0,75,0.00,,,0.00,Wunderground v.1.15,2013-07-30 23:03:00,
2013-07-30 19:05:00,80.3,72.4,30.06,West,268,0.0,2.0,77,0.00,,,0.00,Wunderground v.1.15,2013-07-30 23:05:00,
2013-07-30 19:07:00,80.2,72.3,30.06,West,268,0.0,2.0,77,0.00,,,0.00,Wunderground v.1.15,2013-07-30 23:07:00,
2013-07-30 19:08:00,80.2,73.1,30.06,West,268,0.0,2.0,79,0.00,,,0.00,Wunderground v.1.15,2013-07-30 23:08:00,
2013-07-30 19:10:00,80.0,72.1,30.06,West,268,0.0,1.0,77,0.00,,,0.00,Wunderground v.1.15,2013-07-30 23:10:00,
2013-07-30 19:11:00,79.9,72.4,30.06,West,268,0.0,1.0,78,0.00,,,0.00,Wunderground v.1.15,2013-07-30 23:11:00,
2013-07-30 19:12:00,79.9,72.0,30.06,West,268,0.0,1.0,77,0.00,,,0.00,Wunderground v.1.15,2013-07-30 23:12:00,
2013-07-30 19:13:00,79.8,71.6,30.06,West,268,0.0,1.0,76,0.00,,,0.00,Wunderground v.1.15,2013-07-30 23:13:00,
2013-07-30 19:15:00,79.6,70.6,30.06,West,268,0.0,1.0,74,0.00,,,0.00,Wunderground v.1.15,2013-07-30 23:15:00,
2013-07-30 19:16:00,79.5,71.3,30.06,West,268,2.0,2.0,76,0.00,,,0.00,Wunderground v.1.15,2013-07-30 23:16:00,
2013-07-30 19:17:00,79.4,71.2,30.06,West,268,0.0,2.0,76,0.00,,,0.00,Wunderground v.1.15,2013-07-30 23:17:00,
2013-07-30 19:18:00,79.4,71.2,30.06,West,268,0.0,2.0,76,0.00,,,0.00,Wunderground v.1.15,2013-07-30 23:18:00,
2013-07-30 19:20:00,79.3,71.8,30.06,West,268,0.0,1.0,78,0.00,,,0.00,Wunderground v.1.15,2013-07-30 23:20:00,
2013-07-30 19:21:00,79.2,71.7,30.06,West,268,0.0,1.0,78,0.00,,,0.00,Wunderground v.1.15,2013-07-30 23:21:00,
2013-07-30 19:22:00,79.2,71.7,30.06,West,268,0.0,1.0,78,0.00,,,0.00,Wunderground v.1.15,2013-07-30 23:22:00,
2013-07-30 19:23:00,79.2,72.5,30.06,West,268,1.0,1.0,80,0.00,,,0.00,Wunderground v.1.15,2013-07-30 23:23:00,
2013-07-30 19:25:00,79.0,71.9,30.06,West,268,0.0,1.0,79,0.00,,,0.00,Wunderground v.1.15,2013-07-30 23:25:00,
2013-07-30 19:26:00,78.9,71.8,30.06,West,268,0.0,1.0,79,0.00,,,0.00,Wunderground v.1.15,2013-07-30 23:26:00,
2013-07-30 19:27:00,78.8,72.5,30.06,West,268,0.0,1.0,81,0.00,,,0.00,Wunderground v.1.15,2013-07-30 23:27:00,
2013-07-30 19:28:00,78.7,72.0,30.06,West,268,0.0,1.0,80,0.00,,,0.00,Wunderground v.1.15,2013-07-30 23:28:00,
2013-07-30 19:30:00,78.7,72.0,30.06,West,268,0.0,1.0,80,0.00,,,0.00,Wunderground v.1.15,2013-07-30 23:30:00,
2013-07-30 19:31:00,78.6,71.9,30.06,West,268,0.0,1.0,80,0.00,,,0.00,Wunderground v.1.15,2013-07-30 23:31:00,
2013-07-30 19:33:00,78.4,72.1,30.06,West,268,0.0,1.0,81,0.00,,,0.00,Wunderground v.1.15,2013-07-30 23:33:00,
2013-07-30 19:34:00,78.4,72.1,30.06,West,268,0.0,1.0,81,0.00,,,0.00,Wunderground v.1.15,2013-07-30 23:34:00,
2013-07-30 19:35:00,78.2,72.3,30.06,West,268,0.0,1.0,82,0.00,,,0.00,Wunderground v.1.15,2013-07-30 23:35:00,
2013-07-30 19:36:00,78.2,71.9,30.06,West,268,0.0,1.0,81,0.00,,,0.00,Wunderground v.1.15,2013-07-30 23:36:00,
2013-07-30 19:38:00,78.0,71.3,30.06,West,268,0.0,1.0,80,0.00,,,0.00,Wunderground v.1.15,2013-07-30 23:38:00,
2013-07-30 19:39:00,77.9,71.2,30.06,West,268,0.0,1.0,80,0.00,,,0.00,Wunderground v.1.15,2013-07-30 23:39:00,
2013-07-30 19:42:00,77.7,71.4,30.06,West,268,0.0,0.0,81,0.00,,,0.00,Wunderground v.1.15,2013-07-30 23:42:00,
2013-07-30 19:43:00,77.5,71.2,30.06,West,268,0.0,1.0,81,0.00,,,0.00,Wunderground v.1.15,2013-07-30 23:43:00,
2013-07-30 19:44:00,77.5,71.2,30.06,West,268,0.0,1.0,81,0.00,,,0.00,Wunderground v.1.15,2013-07-30 23:44:00,
2013-07-30 19:46:00,77.4,71.5,30.06,West,268,0.0,1.0,82,0.00,,,0.00,Wunderground v.1.15,2013-07-30 23:46:00,
2013-07-30 19:47:00,77.2,71.3,30.06,West,268,0.0,1.0,82,0.00,,,0.00,Wunderground v.1.15,2013-07-30 23:47:00,
2013-07-30 19:49:00,77.1,70.8,30.06,West,268,0.0,1.0,81,0.00,,,0.00,Wunderground v.1.15,2013-07-30 23:49:00,
2013-07-30 19:52:00,76.7,70.4,30.06,West,268,1.0,1.0,81,0.00,,,0.00,Wunderground v.1.15,2013-07-30 23:52:00,
2013-07-30 19:53:00,76.7,70.4,30.06,West,268,0.0,1.0,81,0.00,,,0.00,Wunderground v.1.15,2013-07-30 23:53:00,
2013-07-30 19:54:00,76.6,70.3,30.06,West,268,0.0,1.0,81,0.00,,,0.00,Wunderground v.1.15,2013-07-30 23:54:00,
2013-07-30 19:55:00,76.5,70.6,30.06,West,268,0.0,1.0,82,0.00,,,0.00,Wunderground v.1.15,2013-07-30 23:55:00,
2013-07-30 19:57:00,76.3,70.4,30.06,West,268,1.0,1.0,82,0.00,,,0.00,Wunderground v.1.15,2013-07-30 23:57:00,
2013-07-30 19:58:00,76.2,70.3,30.06,West,268,0.0,1.0,82,0.00,,,0.00,Wunderground v.1.15,2013-07-30 23:58:00,
2013-07-30 19:59:00,76.1,70.2,30.06,West,268,0.0,1.0,82,0.00,,,0.00,Wunderground v.1.15,2013-07-30 23:59:00,
2013-07-30 20:00:00,76.0,70.1,30.06,West,268,0.0,0.0,82,0.00,,,0.00,Wunderground v.1.15,2013-07-31 00:00:00,
2013-07-30 20:02:00,75.8,70.3,30.06,West,268,0.0,0.0,83,0.00,,,0.00,Wunderground v.1.15,2013-07-31 00:02:00,
2013-07-30 20:03:00,75.8,70.3,30.06,West,268,0.0,0.0,83,0.00,,,0.00,Wunderground v.1.15,2013-07-31 00:03:00,
2013-07-30 20:04:00,75.7,70.2,30.06,West,268,0.0,0.0,83,0.00,,,0.00,Wunderground v.1.15,2013-07-31 00:04:00,
2013-07-30 20:05:00,75.6,70.1,30.06,West,268,0.0,0.0,83,0.00,,,0.00,Wunderground v.1.15,2013-07-31 00:05:00,
2013-07-30 20:07:00,75.4,69.5,30.06,West,268,0.0,2.0,82,0.00,,,0.00,Wunderground v.1.15,2013-07-31 00:07:00,
2013-07-30 20:08:00,75.3,69.8,30.06,West,268,0.0,2.0,83,0.00,,,0.00,Wunderground v.1.15,2013-07-31 00:08:00,
2013-07-30 20:09:00,75.3,69.4,30.06,West,268,0.0,2.0,82,0.00,,,0.00,Wunderground v.1.15,2013-07-31 00:09:00,
2013-07-30 20:10:00,75.2,69.0,30.06,West,268,0.0,1.0,81,0.00,,,0.00,Wunderground v.1.15,2013-07-31 00:10:00,
2013-07-30 20:12:00,75.0,69.5,30.06,West,268,1.0,2.0,83,0.00,,,0.00,Wunderground v.1.15,2013-07-31 00:12:00,
2013-07-30 20:14:00,75.0,69.1,30.06,West,268,2.0,2.0,82,0.00,,,0.00,Wunderground v.1.15,2013-07-31 00:14:00,
2013-07-30 20:15:00,74.9,69.0,30.06,West,268,1.0,3.0,82,0.00,,,0.00,Wunderground v.1.15,2013-07-31 00:15:00,
2013-07-30 20:18:00,74.8,68.9,30.06,West,268,0.0,3.0,82,0.00,,,0.00,Wunderground v.1.15,2013-07-31 00:18:00,
2013-07-30 20:19:00,74.7,68.8,30.06,West,268,1.0,3.0,82,0.00,,,0.00,Wunderground v.1.15,2013-07-31 00:19:00,
2013-07-30 20:20:00,74.6,68.7,30.06,West,268,0.0,1.0,82,0.00,,,0.00,Wunderground v.1.15,2013-07-31 00:20:00,
2013-07-30 20:23:00,74.5,68.6,30.06,West,268,0.0,3.0,82,0.00,,,0.00,Wunderground v.1.15,2013-07-31 00:23:00,
2013-07-30 20:24:00,74.5,68.6,30.06,West,268,1.0,3.0,82,0.00,,,0.00,Wunderground v.1.15,2013-07-31 00:24:00,
2013-07-30 20:25:00,74.4,68.2,30.06,West,268,0.0,3.0,81,0.00,,,0.00,Wunderground v.1.15,2013-07-31 00:25:00,
2013-07-30 20:26:00,74.4,68.2,30.06,West,268,0.0,3.0,81,0.00,,,0.00,Wunderground v.1.15,2013-07-31 00:26:00,
2013-07-30 20:28:00,74.4,68.2,30.06,West,268,0.0,3.0,81,0.00,,,0.00,Wunderground v.1.15,2013-07-31 00:28:00,
2013-07-30 20:29:00,74.4,68.2,30.06,West,268,1.0,3.0,81,0.00,,,0.00,Wunderground v.1.15,2013-07-31 00:29:00,
2013-07-30 20:30:00,74.4,68.2,30.06,West,268,2.0,2.0,81,0.00,,,0.00,Wunderground v.1.15,2013-07-31 00:30:00,
2013-07-30 20:31:00,74.4,68.2,30.06,West,268,1.0,4.0,81,0.00,,,0.00,Wunderground v.1.15,2013-07-31 00:31:00,
2013-07-30 20:33:00,74.3,68.1,30.06,West,268,0.0,4.0,81,0.00,,,0.00,Wunderground v.1.15,2013-07-31 00:33:00,
2013-07-30 20:35:00,74.3,68.1,30.06,West,268,1.0,4.0,81,0.00,,,0.00,Wunderground v.1.15,2013-07-31 00:35:00,
2013-07-30 20:37:00,74.3,67.7,30.06,West,268,0.0,4.0,80,0.00,,,0.00,Wunderground v.1.15,2013-07-31 00:37:00,
2013-07-30 20:38:00,74.3,68.1,30.06,West,268,0.0,4.0,81,0.00,,,0.00,Wunderground v.1.15,2013-07-31 00:38:00,
2013-07-30 20:40:00,74.3,68.1,30.06,West,268,1.0,3.0,81,0.00,,,0.00,Wunderground v.1.15,2013-07-31 00:40:00,
2013-07-30 20:42:00,74.3,68.1,30.06,West,268,1.0,3.0,81,0.00,,,0.00,Wunderground v.1.15,2013-07-31 00:42:00,
2013-07-30 20:44:00,74.2,68.0,30.06,West,268,0.0,3.0,81,0.00,,,0.00,Wunderground v.1.15,2013-07-31 00:44:00,
2013-07-30 20:45:00,74.2,67.6,30.06,West,268,3.0,4.0,80,0.00,,,0.00,Wunderground v.1.15,2013-07-31 00:45:00,
2013-07-30 20:47:00,74.2,67.6,30.06,West,268,0.0,4.0,80,0.00,,,0.00,Wunderground v.1.15,2013-07-31 00:47:00,
2013-07-30 20:49:00,74.1,67.9,30.06,West,268,0.0,1.0,81,0.00,,,0.00,Wunderground v.1.15,2013-07-31 00:49:00,
2013-07-30 20:51:00,74.1,67.9,30.06,West,268,1.0,4.0,81,0.00,,,0.00,Wunderground v.1.15,2013-07-31 00:51:00,
2013-07-30 20:52:00,74.1,68.3,30.06,West,268,0.0,4.0,82,0.00,,,0.00,Wunderground v.1.15,2013-07-31 00:52:00,
2013-07-30 20:55:00,74.0,67.8,30.06,West,268,0.0,4.0,81,0.00,,,0.00,Wunderground v.1.15,2013-07-31 00:55:00,
2013-07-30 20:56:00,74.0,67.8,30.06,West,268,1.0,4.0,81,0.00,,,0.00,Wunderground v.1.15,2013-07-31 00:56:00,
2013-07-30 20:57:00,73.9,68.1,30.06,West,268,0.0,4.0,82,0.00,,,0.00,Wunderground v.1.15,2013-07-31 00:57:00,
2013-07-30 21:00:00,73.9,67.7,30.06,West,268,1.0,1.0,81,0.00,,,0.00,Wunderground v.1.15,2013-07-31 01:00:00,
2013-07-30 21:01:00,73.9,68.1,30.06,West,268,1.0,4.0,82,0.00,,,0.00,Wunderground v.1.15,2013-07-31 01:01:00,
2013-07-30 21:02:00,73.8,68.0,30.06,West,275,3.0,8.0,82,0.00,,,0.00,Wunderground v.1.15,2013-07-31 01:02:00,
2013-07-30 21:03:00,73.8,68.0,30.06,West,275,2.0,8.0,82,0.00,,,0.00,Wunderground v.1.15,2013-07-31 01:03:00,
2013-07-30 21:05:00,73.8,68.0,30.06,West,275,0.0,8.0,82,0.00,,,0.00,Wunderground v.1.15,2013-07-31 01:05:00,
2013-07-30 21:06:00,73.7,67.9,30.06,West,275,1.0,8.0,82,0.00,,,0.00,Wunderground v.1.15,2013-07-31 01:06:00,
2013-07-30 21:07:00,73.7,67.9,30.06,West,275,0.0,8.0,82,0.00,,,0.00,Wunderground v.1.15,2013-07-31 01:07:00,
2013-07-30 21:08:00,73.7,67.9,30.06,West,275,1.0,8.0,82,0.00,,,0.00,Wunderground v.1.15,2013-07-31 01:08:00,
2013-07-30 21:11:00,73.7,67.9,30.06,West,275,0.0,4.0,82,0.00,,,0.00,Wunderground v.1.15,2013-07-31 01:11:00,
2013-07-30 21:12:00,73.7,67.9,30.06,West,275,2.0,4.0,82,0.00,,,0.00,Wunderground v.1.15,2013-07-31 01:12:00,
2013-07-30 21:13:00,73.7,67.5,30.06,West,275,1.0,4.0,81,0.00,,,0.00,Wunderground v.1.15,2013-07-31 01:13:00,
2013-07-30 21:14:00,73.7,67.5,30.06,West,275,0.0,4.0,81,0.00,,,0.00,Wunderground v.1.15,2013-07-31 01:14:00,
2013-07-30 21:17:00,73.7,67.5,30.06,West,275,0.0,4.0,81,0.00,,,0.00,Wunderground v.1.15,2013-07-31 01:17:00,
2013-07-30 21:18:00,73.6,67.4,30.06,West,275,1.0,4.0,81,0.00,,,0.00,Wunderground v.1.15,2013-07-31 01:18:00,
2013-07-30 21:19:00,73.6,67.4,30.06,West,276,0.0,5.0,81,0.00,,,0.00,Wunderground v.1.15,2013-07-31 01:19:00,
2013-07-30 21:23:00,73.6,67.4,30.06,WNW,285,6.0,7.0,81,0.00,,,0.00,Wunderground v.1.15,2013-07-31 01:23:00,
2013-07-30 21:25:00,73.7,67.5,30.06,WNW,284,1.0,7.0,81,0.00,,,0.00,Wunderground v.1.15,2013-07-31 01:25:00,
2013-07-30 21:28:00,73.7,67.5,30.06,WNW,284,0.0,7.0,81,0.00,,,0.00,Wunderground v.1.15,2013-07-31 01:28:00,
2013-07-30 21:29:00,73.7,67.5,30.06,WNW,285,4.0,7.0,81,0.00,,,0.00,Wunderground v.1.15,2013-07-31 01:29:00,
2013-07-30 21:30:00,73.7,67.5,30.06,WNW,285,1.0,2.0,81,0.00,,,0.00,Wunderground v.1.15,2013-07-31 01:30:00,
2013-07-30 21:33:00,73.7,67.5,30.06,WNW,286,1.0,4.0,81,0.00,,,0.00,Wunderground v.1.15,2013-07-31 01:33:00,
2013-07-30 21:34:00,73.7,67.5,30.06,WNW,286,1.0,4.0,81,0.00,,,0.00,Wunderground v.1.15,2013-07-31 01:34:00,
2013-07-30 21:37:00,73.7,67.5,30.06,WNW,286,1.0,5.0,81,0.00,,,0.00,Wunderground v.1.15,2013-07-31 01:37:00,
2013-07-30 21:38:00,73.7,67.5,30.07,WNW,286,2.0,5.0,81,0.00,,,0.00,Wunderground v.1.15,2013-07-31 01:38:00,
2013-07-30 21:39:00,73.8,67.6,30.07,WNW,286,2.0,5.0,81,0.00,,,0.00,Wunderground v.1.15,2013-07-31 01:39:00,
2013-07-30 21:43:00,73.7,67.5,30.07,WNW,287,2.0,3.0,81,0.00,,,0.00,Wunderground v.1.15,2013-07-31 01:43:00,
2013-07-30 21:44:00,73.7,67.5,30.07,WNW,287,1.0,4.0,81,0.00,,,0.00,Wunderground v.1.15,2013-07-31 01:44:00,
2013-07-30 21:48:00,73.8,67.6,30.07,WNW,288,1.0,5.0,81,0.00,,,0.00,Wunderground v.1.15,2013-07-31 01:48:00,
2013-07-30 21:49:00,73.8,67.6,30.07,WNW,288,1.0,5.0,81,0.00,,,0.00,Wunderground v.1.15,2013-07-31 01:49:00,
2013-07-30 21:53:00,73.7,67.5,30.07,WNW,296,0.0,6.0,81,0.00,,,0.00,Wunderground v.1.15,2013-07-31 01:53:00,
2013-07-30 21:54:00,73.7,67.5,30.07,WNW,296,2.0,6.0,81,0.00,,,0.00,Wunderground v.1.15,2013-07-31 01:54:00,
2013-07-30 21:55:00,73.7,67.5,30.07,WNW,296,4.0,6.0,81,0.00,,,0.00,Wunderground v.1.15,2013-07-31 01:55:00,
2013-07-30 21:59:00,73.7,67.5,30.07,WNW,298,3.0,6.0,81,0.00,,,0.00,Wunderground v.1.15,2013-07-31 01:59:00,
2013-07-30 22:00:00,73.7,67.5,30.07,WNW,299,4.0,7.0,81,0.00,,,0.00,Wunderground v.1.15,2013-07-31 02:00:00,
2013-07-30 22:04:00,73.7,67.5,30.07,NW,324,3.0,7.0,81,0.00,,,0.00,Wunderground v.1.15,2013-07-31 02:04:00,
2013-07-30 22:05:00,73.7,67.5,30.07,NW,324,1.0,7.0,81,0.00,,,0.00,Wunderground v.1.15,2013-07-31 02:05:00,
2013-07-30 22:06:00,73.7,67.5,30.07,NW,324,2.0,7.0,81,0.00,,,0.00,Wunderground v.1.15,2013-07-31 02:06:00,
2013-07-30 22:09:00,73.8,67.6,30.07,NW,324,1.0,7.0,81,0.00,,,0.00,Wunderground v.1.15,2013-07-31 02:09:00,
2013-07-30 22:10:00,73.7,67.5,30.07,NW,324,3.0,4.0,81,0.00,,,0.00,Wunderground v.1.15,2013-07-31 02:10:00,
2013-07-30 22:11:00,73.8,67.6,30.07,NW,323,1.0,4.0,81,0.00,,,0.00,Wunderground v.1.15,2013-07-31 02:11:00,
2013-07-30 22:12:00,73.8,67.6,30.07,NW,324,0.0,4.0,81,0.00,,,0.00,Wunderground v.1.15,2013-07-31 02:12:00,
2013-07-30 22:14:00,73.8,67.6,30.07,NW,324,1.0,5.0,81,0.00,,,0.00,Wunderground v.1.15,2013-07-31 02:14:00,
2013-07-30 22:15:00,73.8,67.6,30.07,NW,324,2.0,5.0,81,0.00,,,0.00,Wunderground v.1.15,2013-07-31 02:15:00,
2013-07-30 22:16:00,73.8,67.6,30.07,NW,324,1.0,5.0,81,0.00,,,0.00,Wunderground v.1.15,2013-07-31 02:16:00,
2013-07-30 22:17:00,73.7,67.5,30.07,NW,323,0.0,5.0,81,0.00,,,0.00,Wunderground v.1.15,2013-07-31 02:17:00,
2013-07-30 22:20:00,73.7,67.5,30.07,NW,324,1.0,1.0,81,0.00,,,0.00,Wunderground v.1.15,2013-07-31 02:20:00,
2013-07-30 22:22:00,73.7,67.5,30.07,NW,324,1.0,2.0,81,0.00,,,0.00,Wunderground v.1.15,2013-07-31 02:22:00,
2013-07-30 22:25:00,73.7,67.5,30.07,NW,323,1.0,3.0,81,0.00,,,0.00,Wunderground v.1.15,2013-07-31 02:25:00,
2013-07-30 22:27:00,73.7,67.9,30.07,NW,324,0.0,3.0,82,0.00,,,0.00,Wunderground v.1.15,2013-07-31 02:27:00,
2013-07-30 22:30:00,73.6,67.8,30.08,NW,324,1.0,2.0,82,0.00,,,0.00,Wunderground v.1.15,2013-07-31 02:30:00,
2013-07-30 22:31:00,73.6,67.8,30.08,NW,323,0.0,2.0,82,0.00,,,0.00,Wunderground v.1.15,2013-07-31 02:31:00,
2013-07-30 22:32:00,73.5,67.7,30.08,NW,323,0.0,2.0,82,0.00,,,0.00,Wunderground v.1.15,2013-07-31 02:32:00,
2013-07-30 22:33:00,73.5,67.7,30.08,NW,324,0.0,3.0,82,0.00,,,0.00,Wunderground v.1.15,2013-07-31 02:33:00,
2013-07-30 22:35:00,73.4,67.6,30.08,NW,323,2.0,3.0,82,0.00,,,0.00,Wunderground v.1.15,2013-07-31 02:35:00,
2013-07-30 22:36:00,73.4,67.6,30.08,NW,324,0.0,3.0,82,0.00,,,0.00,Wunderground v.1.15,2013-07-31 02:36:00,
2013-07-30 22:37:00,73.4,67.6,30.08,NW,323,0.0,3.0,82,0.00,,,0.00,Wunderground v.1.15,2013-07-31 02:37:00,
2013-07-30 22:38:00,73.4,67.6,30.08,NW,324,0.0,3.0,82,0.00,,,0.00,Wunderground v.1.15,2013-07-31 02:38:00,
2013-07-30 22:40:00,73.4,67.9,30.08,NW,324,0.0,1.0,83,0.00,,,0.00,Wunderground v.1.15,2013-07-31 02:40:00,
2013-07-30 22:42:00,73.4,67.9,30.08,NW,324,2.0,2.0,83,0.00,,,0.00,Wunderground v.1.15,2013-07-31 02:42:00,
2013-07-30 22:43:00,73.4,67.6,30.08,NW,324,0.0,2.0,82,0.00,,,0.00,Wunderground v.1.15,2013-07-31 02:43:00,
2013-07-30 22:44:00,73.3,67.8,30.08,NW,324,0.0,2.0,83,0.00,,,0.00,Wunderground v.1.15,2013-07-31 02:44:00,
2013-07-30 22:46:00,73.3,67.8,30.08,NW,324,0.0,2.0,83,0.00,,,0.00,Wunderground v.1.15,2013-07-31 02:46:00,
2013-07-30 22:47:00,73.2,68.1,30.08,NW,324,0.0,2.0,84,0.00,,,0.00,Wunderground v.1.15,2013-07-31 02:47:00,
2013-07-30 22:48:00,73.2,68.1,30.08,NW,324,0.0,2.0,84,0.00,,,0.00,Wunderground v.1.15,2013-07-31 02:48:00,
2013-07-30 22:49:00,73.2,68.1,30.08,NW,324,0.0,0.0,84,0.00,,,0.00,Wunderground v.1.15,2013-07-31 02:49:00,
2013-07-30 22:51:00,73.1,68.0,30.08,NW,324,0.0,1.0,84,0.00,,,0.00,Wunderground v.1.15,2013-07-31 02:51:00,
2013-07-30 22:52:00,73.1,68.3,30.08,NW,324,3.0,3.0,85,0.00,,,0.00,Wunderground v.1.15,2013-07-31 02:52:00,
2013-07-30 22:53:00,73.1,68.0,30.08,NW,323,2.0,5.0,84,0.00,,,0.00,Wunderground v.1.15,2013-07-31 02:53:00,
2013-07-30 22:54:00,73.0,67.9,30.08,NW,324,1.0,5.0,84,0.00,,,0.00,Wunderground v.1.15,2013-07-31 02:54:00,
2013-07-30 22:55:00,73.0,67.9,30.08,NW,324,0.0,5.0,84,0.00,,,0.00,Wunderground v.1.15,2013-07-31 02:55:00,
2013-07-30 22:58:00,72.8,68.0,30.08,NW,323,0.0,5.0,85,0.00,,,0.00,Wunderground v.1.15,2013-07-31 02:58:00,
2013-07-30 22:59:00,72.8,68.0,30.08,NW,324,0.0,1.0,85,0.00,,,0.00,Wunderground v.1.15,2013-07-31 02:59:00,
2013-07-30 23:00:00,72.8,68.0,30.08,NW,324,0.0,1.0,85,0.00,,,0.00,Wunderground v.1.15,2013-07-31 03:00:00,
2013-07-30 23:03:00,72.5,68.1,30.08,NW,323,3.0,3.0,86,0.00,,,0.00,Wunderground v.1.15,2013-07-31 03:03:00,
2013-07-30 23:04:00,72.5,67.7,30.08,NW,323,0.0,3.0,85,0.00,,,0.00,Wunderground v.1.15,2013-07-31 03:04:00,
2013-07-30 23:05:00,72.5,68.1,30.08,NW,324,1.0,3.0,86,0.00,,,0.00,Wunderground v.1.15,2013-07-31 03:05:00,
2013-07-30 23:08:00,72.3,67.9,30.08,NW,323,0.0,3.0,86,0.00,,,0.00,Wunderground v.1.15,2013-07-31 03:08:00,
2013-07-30 23:09:00,72.3,67.9,30.08,NW,323,0.0,3.0,86,0.00,,,0.00,Wunderground v.1.15,2013-07-31 03:09:00,
2013-07-30 23:10:00,72.2,67.8,30.08,NW,323,0.0,0.0,86,0.00,,,0.00,Wunderground v.1.15,2013-07-31 03:10:00,
2013-07-30 23:13:00,72.1,68.0,30.08,NW,324,0.0,1.0,87,0.00,,,0.00,Wunderground v.1.15,2013-07-31 03:13:00,
2013-07-30 23:14:00,72.1,68.0,30.08,NW,324,0.0,1.0,87,0.00,,,0.00,Wunderground v.1.15,2013-07-31 03:14:00,
2013-07-30 23:15:00,72.0,67.9,30.08,NW,324,1.0,1.0,87,0.00,,,0.00,Wunderground v.1.15,2013-07-31 03:15:00,
2013-07-30 23:17:00,71.9,67.8,30.08,NW,324,0.0,1.0,87,0.00,,,0.00,Wunderground v.1.15,2013-07-31 03:17:00,
2013-07-30 23:19:00,71.9,67.8,30.08,NW,324,1.0,2.0,87,0.00,,,0.00,Wunderground v.1.15,2013-07-31 03:19:00,
2013-07-30 23:20:00,71.8,68.1,30.07,NW,323,3.0,3.0,88,0.00,,,0.00,Wunderground v.1.15,2013-07-31 03:20:00,
2013-07-30 23:24:00,71.6,67.9,30.07,NW,324,1.0,3.0,88,0.00,,,0.00,Wunderground v.1.15,2013-07-31 03:24:00,
2013-07-30 23:26:00,71.5,67.8,30.07,NW,324,0.0,3.0,88,0.00,,,0.00,Wunderground v.1.15,2013-07-31 03:26:00,
2013-07-30 23:29:00,71.5,67.8,30.07,NW,324,0.0,3.0,88,0.00,,,0.00,Wunderground v.1.15,2013-07-31 03:29:00,
2013-07-30 23:31:00,71.5,67.8,30.07,NW,324,0.0,1.0,88,0.00,,,0.00,Wunderground v.1.15,2013-07-31 03:31:00,
2013-07-30 23:34:00,71.5,67.8,30.07,NW,323,0.0,1.0,88,0.00,,,0.00,Wunderground v.1.15,2013-07-31 03:34:00,
2013-07-30 23:35:00,71.5,67.8,30.07,NW,323,1.0,2.0,88,0.00,,,0.00,Wunderground v.1.15,2013-07-31 03:35:00,
2013-07-30 23:37:00,71.5,67.8,30.07,NW,324,1.0,2.0,88,0.00,,,0.00,Wunderground v.1.15,2013-07-31 03:37:00,
2013-07-30 23:39:00,71.5,67.8,30.07,NW,323,0.0,2.0,88,0.00,,,0.00,Wunderground v.1.15,2013-07-31 03:39:00,
2013-07-30 23:40:00,71.5,67.8,30.07,NW,323,0.0,0.0,88,0.00,,,0.00,Wunderground v.1.15,2013-07-31 03:40:00,
2013-07-30 23:41:00,71.5,67.8,30.06,NW,323,0.0,1.0,88,0.00,,,0.00,Wunderground v.1.15,2013-07-31 03:41:00,
2013-07-30 23:42:00,71.5,67.8,30.06,NW,324,2.0,2.0,88,0.00,,,0.00,Wunderground v.1.15,2013-07-31 03:42:00,
2013-07-30 23:45:00,71.6,67.9,30.06,NW,324,0.0,4.0,88,0.00,,,0.00,Wunderground v.1.15,2013-07-31 03:45:00,
2013-07-30 23:46:00,71.6,67.9,30.06,NW,323,0.0,4.0,88,0.00,,,0.00,Wunderground v.1.15,2013-07-31 03:46:00,
2013-07-30 23:48:00,71.6,67.9,30.07,NW,323,0.0,4.0,88,0.00,,,0.00,Wunderground v.1.15,2013-07-31 03:48:00,
2013-07-30 23:50:00,71.6,67.9,30.06,NW,324,0.0,0.0,88,0.00,,,0.00,Wunderground v.1.15,2013-07-31 03:50:00,
2013-07-30 23:52:00,71.7,68.0,30.06,NW,323,0.0,1.0,88,0.00,,,0.00,Wunderground v.1.15,2013-07-31 03:52:00,
2013-07-30 23:53:00,71.6,67.9,30.06,NW,323,1.0,1.0,88,0.00,,,0.00,Wunderground v.1.15,2013-07-31 03:53:00,
2013-07-30 23:55:00,71.7,68.0,30.06,NW,324,1.0,1.0,88,0.00,,,0.00,Wunderground v.1.15,2013-07-31 03:55:00,
2013-07-30 23:58:00,71.6,67.9,30.06,NW,324,0.0,1.0,88,0.00,,,0.00,Wunderground v.1.15,2013-07-31 03:58:00,
2013-07-30 23:59:00,71.6,67.9,30.06,NW,324,0.0,1.0,88,0.00,,,0.00,Wunderground v.1.15,2013-07-31 03:59:00,